<?xml version="1.0" encoding="UTF-8" standalone="no" ?>
<gpx xmlns="http://www.topografix.com/GPX/1/1" xmlns:xsi="http://www.w3.org/2001/XMLSchema-instance" xsi:schemaLocation="http://www.topografix.com/GPX/1/1 http://www.topografix.com/GPX/1/1/gpx.xsd" version="1.1" creator="VisuGPX - https://www.visugpx.com">
  <metadata>
    <name>marche noyer-pont maugis</name>
    <desc><![CDATA[encore une journée de l été indien]]></desc>
  </metadata>
  <trk>
    <name><![CDATA[Tracé actuel: 08 OCT 2018 12:58]]></name>
    <trkseg>
      <trkpt lat="49.63456" lon="4.98059">
        <ele>190</ele>
        <time>2018-10-08T10:58:28Z</time>
      </trkpt>
      <trkpt lat="49.63458" lon="4.98054">
        <ele>195.77</ele>
        <time>2018-10-08T10:58:52Z</time>
      </trkpt>
      <trkpt lat="49.63452" lon="4.98044">
        <ele>192.88</ele>
        <time>2018-10-08T10:59:13Z</time>
      </trkpt>
      <trkpt lat="49.63439" lon="4.98033">
        <ele>191.92</ele>
        <time>2018-10-08T10:59:33Z</time>
      </trkpt>
      <trkpt lat="49.63416" lon="4.98007">
        <ele>188.56</ele>
        <time>2018-10-08T10:59:55Z</time>
      </trkpt>
      <trkpt lat="49.63393" lon="4.97977">
        <ele>188.56</ele>
        <time>2018-10-08T11:00:20Z</time>
      </trkpt>
      <trkpt lat="49.63383" lon="4.97947">
        <ele>188.08</ele>
        <time>2018-10-08T11:00:42Z</time>
      </trkpt>
      <trkpt lat="49.63407" lon="4.97923">
        <ele>186.15</ele>
        <time>2018-10-08T11:01:01Z</time>
      </trkpt>
      <trkpt lat="49.63426" lon="4.97908">
        <ele>183.75</ele>
        <time>2018-10-08T11:01:21Z</time>
      </trkpt>
      <trkpt lat="49.63451" lon="4.97901">
        <ele>184.71</ele>
        <time>2018-10-08T11:01:42Z</time>
      </trkpt>
      <trkpt lat="49.63467" lon="4.97883">
        <ele>178.94</ele>
        <time>2018-10-08T11:02:00Z</time>
      </trkpt>
      <trkpt lat="49.63482" lon="4.97859">
        <ele>176.54</ele>
        <time>2018-10-08T11:02:19Z</time>
      </trkpt>
      <trkpt lat="49.63493" lon="4.97836">
        <ele>174.14</ele>
        <time>2018-10-08T11:02:38Z</time>
      </trkpt>
      <trkpt lat="49.63512" lon="4.97816">
        <ele>173.17</ele>
        <time>2018-10-08T11:02:57Z</time>
      </trkpt>
      <trkpt lat="49.63527" lon="4.97798">
        <ele>170.77</ele>
        <time>2018-10-08T11:03:14Z</time>
      </trkpt>
      <trkpt lat="49.63541" lon="4.97783">
        <ele>170.77</ele>
        <time>2018-10-08T11:03:31Z</time>
      </trkpt>
      <trkpt lat="49.63555" lon="4.97748">
        <ele>169.81</ele>
        <time>2018-10-08T11:03:54Z</time>
      </trkpt>
      <trkpt lat="49.6356" lon="4.97735">
        <ele>169.33</ele>
        <time>2018-10-08T11:04:04Z</time>
      </trkpt>
      <trkpt lat="49.63577" lon="4.97703">
        <ele>166.45</ele>
        <time>2018-10-08T11:04:26Z</time>
      </trkpt>
      <trkpt lat="49.63593" lon="4.97675">
        <ele>165.96</ele>
        <time>2018-10-08T11:04:49Z</time>
      </trkpt>
      <trkpt lat="49.63599" lon="4.97675">
        <ele>167.41</ele>
        <time>2018-10-08T11:04:57Z</time>
      </trkpt>
      <trkpt lat="49.6362" lon="4.97666">
        <ele>171.73</ele>
        <time>2018-10-08T11:05:12Z</time>
      </trkpt>
      <trkpt lat="49.63649" lon="4.97692">
        <ele>180.87</ele>
        <time>2018-10-08T11:05:37Z</time>
      </trkpt>
      <trkpt lat="49.63669" lon="4.97717">
        <ele>186.15</ele>
        <time>2018-10-08T11:05:57Z</time>
      </trkpt>
      <trkpt lat="49.63697" lon="4.97732">
        <ele>186.63</ele>
        <time>2018-10-08T11:06:22Z</time>
      </trkpt>
      <trkpt lat="49.63721" lon="4.97748">
        <ele>186.63</ele>
        <time>2018-10-08T11:06:45Z</time>
      </trkpt>
      <trkpt lat="49.6374" lon="4.97771">
        <ele>182.79</ele>
        <time>2018-10-08T11:07:10Z</time>
      </trkpt>
      <trkpt lat="49.63771" lon="4.97786">
        <ele>178.46</ele>
        <time>2018-10-08T11:07:35Z</time>
      </trkpt>
      <trkpt lat="49.63784" lon="4.978">
        <ele>175.1</ele>
        <time>2018-10-08T11:07:56Z</time>
      </trkpt>
      <trkpt lat="49.63804" lon="4.9782">
        <ele>171.25</ele>
        <time>2018-10-08T11:08:19Z</time>
      </trkpt>
      <trkpt lat="49.63821" lon="4.97841">
        <ele>169.33</ele>
        <time>2018-10-08T11:08:44Z</time>
      </trkpt>
      <trkpt lat="49.63845" lon="4.97859">
        <ele>170.77</ele>
        <time>2018-10-08T11:09:07Z</time>
      </trkpt>
      <trkpt lat="49.63865" lon="4.97885">
        <ele>167.41</ele>
        <time>2018-10-08T11:09:32Z</time>
      </trkpt>
      <trkpt lat="49.63878" lon="4.97902">
        <ele>166.45</ele>
        <time>2018-10-08T11:09:51Z</time>
      </trkpt>
      <trkpt lat="49.63904" lon="4.97926">
        <ele>162.6</ele>
        <time>2018-10-08T11:10:13Z</time>
      </trkpt>
      <trkpt lat="49.63945" lon="4.97958">
        <ele>168.37</ele>
        <time>2018-10-08T11:10:39Z</time>
      </trkpt>
      <trkpt lat="49.63968" lon="4.9798">
        <ele>168.85</ele>
        <time>2018-10-08T11:11:02Z</time>
      </trkpt>
      <trkpt lat="49.63984" lon="4.97994">
        <ele>169.33</ele>
        <time>2018-10-08T11:11:26Z</time>
      </trkpt>
      <trkpt lat="49.64016" lon="4.98033">
        <ele>161.64</ele>
        <time>2018-10-08T11:11:54Z</time>
      </trkpt>
      <trkpt lat="49.64042" lon="4.98055">
        <ele>162.12</ele>
        <time>2018-10-08T11:12:18Z</time>
      </trkpt>
      <trkpt lat="49.64059" lon="4.98075">
        <ele>161.64</ele>
        <time>2018-10-08T11:12:42Z</time>
      </trkpt>
      <trkpt lat="49.64084" lon="4.98096">
        <ele>160.68</ele>
        <time>2018-10-08T11:13:03Z</time>
      </trkpt>
      <trkpt lat="49.64102" lon="4.98116">
        <ele>155.39</ele>
        <time>2018-10-08T11:13:28Z</time>
      </trkpt>
      <trkpt lat="49.64135" lon="4.98147">
        <ele>156.83</ele>
        <time>2018-10-08T11:13:52Z</time>
      </trkpt>
      <trkpt lat="49.64159" lon="4.9817">
        <ele>159.72</ele>
        <time>2018-10-08T11:14:15Z</time>
      </trkpt>
      <trkpt lat="49.64185" lon="4.9819">
        <ele>157.79</ele>
        <time>2018-10-08T11:14:40Z</time>
      </trkpt>
      <trkpt lat="49.64213" lon="4.98212">
        <ele>161.16</ele>
        <time>2018-10-08T11:15:03Z</time>
      </trkpt>
      <trkpt lat="49.64241" lon="4.98237">
        <ele>168.85</ele>
        <time>2018-10-08T11:15:27Z</time>
      </trkpt>
      <trkpt lat="49.64265" lon="4.98262">
        <ele>166.93</ele>
        <time>2018-10-08T11:15:51Z</time>
      </trkpt>
      <trkpt lat="49.64288" lon="4.98283">
        <ele>167.41</ele>
        <time>2018-10-08T11:16:15Z</time>
      </trkpt>
      <trkpt lat="49.64309" lon="4.98302">
        <ele>166.45</ele>
        <time>2018-10-08T11:16:38Z</time>
      </trkpt>
      <trkpt lat="49.64339" lon="4.98323">
        <ele>167.41</ele>
        <time>2018-10-08T11:17:05Z</time>
      </trkpt>
      <trkpt lat="49.64366" lon="4.98345">
        <ele>168.37</ele>
        <time>2018-10-08T11:17:27Z</time>
      </trkpt>
      <trkpt lat="49.64385" lon="4.98361">
        <ele>164.52</ele>
        <time>2018-10-08T11:17:50Z</time>
      </trkpt>
      <trkpt lat="49.64387" lon="4.98363">
        <ele>164.52</ele>
        <time>2018-10-08T11:17:52Z</time>
      </trkpt>
      <trkpt lat="49.64411" lon="4.9838">
        <ele>161.64</ele>
        <time>2018-10-08T11:18:16Z</time>
      </trkpt>
      <trkpt lat="49.64439" lon="4.98395">
        <ele>159.24</ele>
        <time>2018-10-08T11:18:40Z</time>
      </trkpt>
      <trkpt lat="49.64461" lon="4.98413">
        <ele>157.79</ele>
        <time>2018-10-08T11:19:03Z</time>
      </trkpt>
      <trkpt lat="49.64487" lon="4.98431">
        <ele>159.24</ele>
        <time>2018-10-08T11:19:27Z</time>
      </trkpt>
      <trkpt lat="49.64515" lon="4.98446">
        <ele>158.27</ele>
        <time>2018-10-08T11:19:49Z</time>
      </trkpt>
      <trkpt lat="49.64543" lon="4.98461">
        <ele>155.39</ele>
        <time>2018-10-08T11:20:15Z</time>
      </trkpt>
      <trkpt lat="49.64576" lon="4.98482">
        <ele>162.12</ele>
        <time>2018-10-08T11:20:41Z</time>
      </trkpt>
      <trkpt lat="49.646" lon="4.98495">
        <ele>162.12</ele>
        <time>2018-10-08T11:21:04Z</time>
      </trkpt>
      <trkpt lat="49.64628" lon="4.98504">
        <ele>166.45</ele>
        <time>2018-10-08T11:21:26Z</time>
      </trkpt>
      <trkpt lat="49.64656" lon="4.98522">
        <ele>167.89</ele>
        <time>2018-10-08T11:21:49Z</time>
      </trkpt>
      <trkpt lat="49.6468" lon="4.98533">
        <ele>168.85</ele>
        <time>2018-10-08T11:22:09Z</time>
      </trkpt>
      <trkpt lat="49.64704" lon="4.98547">
        <ele>167.41</ele>
        <time>2018-10-08T11:22:32Z</time>
      </trkpt>
      <trkpt lat="49.64725" lon="4.98561">
        <ele>166.45</ele>
        <time>2018-10-08T11:22:53Z</time>
      </trkpt>
      <trkpt lat="49.64752" lon="4.98577">
        <ele>165.48</ele>
        <time>2018-10-08T11:23:16Z</time>
      </trkpt>
      <trkpt lat="49.64777" lon="4.9859">
        <ele>163.56</ele>
        <time>2018-10-08T11:23:39Z</time>
      </trkpt>
      <trkpt lat="49.64809" lon="4.98606">
        <ele>164.52</ele>
        <time>2018-10-08T11:24:04Z</time>
      </trkpt>
      <trkpt lat="49.64845" lon="4.98627">
        <ele>169.33</ele>
        <time>2018-10-08T11:24:32Z</time>
      </trkpt>
      <trkpt lat="49.64874" lon="4.98646">
        <ele>168.85</ele>
        <time>2018-10-08T11:24:58Z</time>
      </trkpt>
      <trkpt lat="49.64902" lon="4.98668">
        <ele>168.37</ele>
        <time>2018-10-08T11:25:23Z</time>
      </trkpt>
      <trkpt lat="49.64928" lon="4.9868">
        <ele>168.85</ele>
        <time>2018-10-08T11:25:46Z</time>
      </trkpt>
      <trkpt lat="49.64947" lon="4.98686">
        <ele>169.33</ele>
        <time>2018-10-08T11:26:01Z</time>
      </trkpt>
      <trkpt lat="49.64959" lon="4.98704">
        <ele>163.56</ele>
        <time>2018-10-08T11:26:21Z</time>
      </trkpt>
      <trkpt lat="49.64964" lon="4.98713">
        <ele>158.75</ele>
        <time>2018-10-08T11:26:35Z</time>
      </trkpt>
      <trkpt lat="49.64983" lon="4.98732">
        <ele>153.47</ele>
        <time>2018-10-08T11:26:54Z</time>
      </trkpt>
      <trkpt lat="49.65009" lon="4.98757">
        <ele>150.1</ele>
        <time>2018-10-08T11:27:20Z</time>
      </trkpt>
      <trkpt lat="49.65032" lon="4.98778">
        <ele>148.66</ele>
        <time>2018-10-08T11:27:42Z</time>
      </trkpt>
      <trkpt lat="49.65056" lon="4.98799">
        <ele>146.26</ele>
        <time>2018-10-08T11:28:06Z</time>
      </trkpt>
      <trkpt lat="49.65085" lon="4.98829">
        <ele>149.62</ele>
        <time>2018-10-08T11:28:32Z</time>
      </trkpt>
      <trkpt lat="49.6511" lon="4.98851">
        <ele>155.87</ele>
        <time>2018-10-08T11:28:54Z</time>
      </trkpt>
      <trkpt lat="49.65136" lon="4.98876">
        <ele>158.75</ele>
        <time>2018-10-08T11:29:17Z</time>
      </trkpt>
      <trkpt lat="49.65162" lon="4.989">
        <ele>160.68</ele>
        <time>2018-10-08T11:29:42Z</time>
      </trkpt>
      <trkpt lat="49.65182" lon="4.98921">
        <ele>161.16</ele>
        <time>2018-10-08T11:30:04Z</time>
      </trkpt>
      <trkpt lat="49.65202" lon="4.98942">
        <ele>159.72</ele>
        <time>2018-10-08T11:30:26Z</time>
      </trkpt>
      <trkpt lat="49.6523" lon="4.9896">
        <ele>161.16</ele>
        <time>2018-10-08T11:30:49Z</time>
      </trkpt>
      <trkpt lat="49.65256" lon="4.98986">
        <ele>161.16</ele>
        <time>2018-10-08T11:31:13Z</time>
      </trkpt>
      <trkpt lat="49.65283" lon="4.99007">
        <ele>155.87</ele>
        <time>2018-10-08T11:31:39Z</time>
      </trkpt>
      <trkpt lat="49.65306" lon="4.99033">
        <ele>155.39</ele>
        <time>2018-10-08T11:32:01Z</time>
      </trkpt>
      <trkpt lat="49.65319" lon="4.99048">
        <ele>155.87</ele>
        <time>2018-10-08T11:32:15Z</time>
      </trkpt>
      <trkpt lat="49.65329" lon="4.99083">
        <ele>155.39</ele>
        <time>2018-10-08T11:32:35Z</time>
      </trkpt>
      <trkpt lat="49.65339" lon="4.9911">
        <ele>156.35</ele>
        <time>2018-10-08T11:32:53Z</time>
      </trkpt>
      <trkpt lat="49.65359" lon="4.99148">
        <ele>153.95</ele>
        <time>2018-10-08T11:33:17Z</time>
      </trkpt>
      <trkpt lat="49.65374" lon="4.9918">
        <ele>154.91</ele>
        <time>2018-10-08T11:33:39Z</time>
      </trkpt>
      <trkpt lat="49.65372" lon="4.99189">
        <ele>154.91</ele>
        <time>2018-10-08T11:33:46Z</time>
      </trkpt>
      <trkpt lat="49.6537" lon="4.99197">
        <ele>156.83</ele>
        <time>2018-10-08T11:33:51Z</time>
      </trkpt>
      <trkpt lat="49.65374" lon="4.99202">
        <ele>157.31</ele>
        <time>2018-10-08T11:33:55Z</time>
      </trkpt>
      <trkpt lat="49.65393" lon="4.992">
        <ele>157.79</ele>
        <time>2018-10-08T11:34:12Z</time>
      </trkpt>
      <trkpt lat="49.65411" lon="4.99221">
        <ele>154.43</ele>
        <time>2018-10-08T11:34:31Z</time>
      </trkpt>
      <trkpt lat="49.6542" lon="4.99236">
        <ele>153.47</ele>
        <time>2018-10-08T11:34:42Z</time>
      </trkpt>
      <trkpt lat="49.65432" lon="4.99261">
        <ele>151.54</ele>
        <time>2018-10-08T11:34:58Z</time>
      </trkpt>
      <trkpt lat="49.65451" lon="4.99289">
        <ele>151.06</ele>
        <time>2018-10-08T11:35:18Z</time>
      </trkpt>
      <trkpt lat="49.65472" lon="4.99261">
        <ele>152.03</ele>
        <time>2018-10-08T11:35:38Z</time>
      </trkpt>
      <trkpt lat="49.65486" lon="4.99223">
        <ele>155.87</ele>
        <time>2018-10-08T11:36:00Z</time>
      </trkpt>
      <trkpt lat="49.65495" lon="4.99204">
        <ele>156.83</ele>
        <time>2018-10-08T11:36:17Z</time>
      </trkpt>
      <trkpt lat="49.65501" lon="4.99204">
        <ele>156.35</ele>
        <time>2018-10-08T11:36:27Z</time>
      </trkpt>
      <trkpt lat="49.65529" lon="4.99216">
        <ele>154.43</ele>
        <time>2018-10-08T11:36:50Z</time>
      </trkpt>
      <trkpt lat="49.65554" lon="4.99241">
        <ele>154.43</ele>
        <time>2018-10-08T11:37:14Z</time>
      </trkpt>
      <trkpt lat="49.65567" lon="4.99244">
        <ele>154.91</ele>
        <time>2018-10-08T11:37:29Z</time>
      </trkpt>
      <trkpt lat="49.6559" lon="4.99207">
        <ele>156.83</ele>
        <time>2018-10-08T11:37:52Z</time>
      </trkpt>
      <trkpt lat="49.65608" lon="4.99176">
        <ele>160.2</ele>
        <time>2018-10-08T11:38:13Z</time>
      </trkpt>
      <trkpt lat="49.65615" lon="4.99164">
        <ele>159.72</ele>
        <time>2018-10-08T11:38:23Z</time>
      </trkpt>
      <trkpt lat="49.65635" lon="4.99129">
        <ele>158.27</ele>
        <time>2018-10-08T11:38:46Z</time>
      </trkpt>
      <trkpt lat="49.65653" lon="4.99098">
        <ele>156.35</ele>
        <time>2018-10-08T11:39:08Z</time>
      </trkpt>
      <trkpt lat="49.65671" lon="4.99069">
        <ele>155.39</ele>
        <time>2018-10-08T11:39:29Z</time>
      </trkpt>
      <trkpt lat="49.65688" lon="4.9904">
        <ele>154.91</ele>
        <time>2018-10-08T11:39:50Z</time>
      </trkpt>
      <trkpt lat="49.65705" lon="4.99004">
        <ele>153.95</ele>
        <time>2018-10-08T11:40:14Z</time>
      </trkpt>
      <trkpt lat="49.65722" lon="4.98975">
        <ele>153.95</ele>
        <time>2018-10-08T11:40:34Z</time>
      </trkpt>
      <trkpt lat="49.6574" lon="4.98948">
        <ele>153.95</ele>
        <time>2018-10-08T11:40:56Z</time>
      </trkpt>
      <trkpt lat="49.65758" lon="4.9891">
        <ele>150.58</ele>
        <time>2018-10-08T11:41:22Z</time>
      </trkpt>
      <trkpt lat="49.65779" lon="4.98872">
        <ele>152.51</ele>
        <time>2018-10-08T11:41:46Z</time>
      </trkpt>
      <trkpt lat="49.65801" lon="4.98833">
        <ele>154.91</ele>
        <time>2018-10-08T11:42:13Z</time>
      </trkpt>
      <trkpt lat="49.65823" lon="4.98789">
        <ele>156.83</ele>
        <time>2018-10-08T11:42:40Z</time>
      </trkpt>
      <trkpt lat="49.65844" lon="4.98754">
        <ele>160.68</ele>
        <time>2018-10-08T11:43:03Z</time>
      </trkpt>
      <trkpt lat="49.65862" lon="4.98719">
        <ele>159.72</ele>
        <time>2018-10-08T11:43:24Z</time>
      </trkpt>
      <trkpt lat="49.65882" lon="4.98683">
        <ele>163.08</ele>
        <time>2018-10-08T11:43:50Z</time>
      </trkpt>
      <trkpt lat="49.65897" lon="4.98655">
        <ele>159.72</ele>
        <time>2018-10-08T11:44:12Z</time>
      </trkpt>
      <trkpt lat="49.65914" lon="4.98619">
        <ele>156.83</ele>
        <time>2018-10-08T11:44:34Z</time>
      </trkpt>
      <trkpt lat="49.65934" lon="4.98578">
        <ele>160.2</ele>
        <time>2018-10-08T11:44:59Z</time>
      </trkpt>
      <trkpt lat="49.65948" lon="4.98548">
        <ele>163.08</ele>
        <time>2018-10-08T11:45:17Z</time>
      </trkpt>
      <trkpt lat="49.65963" lon="4.98515">
        <ele>165.96</ele>
        <time>2018-10-08T11:45:39Z</time>
      </trkpt>
      <trkpt lat="49.65966" lon="4.98507">
        <ele>165.48</ele>
        <time>2018-10-08T11:45:53Z</time>
      </trkpt>
      <trkpt lat="49.65981" lon="4.98483">
        <ele>167.41</ele>
        <time>2018-10-08T11:46:13Z</time>
      </trkpt>
      <trkpt lat="49.65999" lon="4.98452">
        <ele>165.48</ele>
        <time>2018-10-08T11:46:33Z</time>
      </trkpt>
      <trkpt lat="49.66017" lon="4.98421">
        <ele>163.08</ele>
        <time>2018-10-08T11:46:56Z</time>
      </trkpt>
      <trkpt lat="49.66035" lon="4.9839">
        <ele>159.72</ele>
        <time>2018-10-08T11:47:18Z</time>
      </trkpt>
      <trkpt lat="49.66053" lon="4.98355">
        <ele>156.35</ele>
        <time>2018-10-08T11:47:43Z</time>
      </trkpt>
      <trkpt lat="49.66068" lon="4.98322">
        <ele>152.03</ele>
        <time>2018-10-08T11:48:05Z</time>
      </trkpt>
      <trkpt lat="49.66087" lon="4.98284">
        <ele>148.18</ele>
        <time>2018-10-08T11:48:30Z</time>
      </trkpt>
      <trkpt lat="49.66104" lon="4.98252">
        <ele>146.74</ele>
        <time>2018-10-08T11:48:51Z</time>
      </trkpt>
      <trkpt lat="49.66123" lon="4.98216">
        <ele>144.82</ele>
        <time>2018-10-08T11:49:15Z</time>
      </trkpt>
      <trkpt lat="49.66139" lon="4.98186">
        <ele>145.3</ele>
        <time>2018-10-08T11:49:34Z</time>
      </trkpt>
      <trkpt lat="49.66161" lon="4.98148">
        <ele>151.54</ele>
        <time>2018-10-08T11:49:57Z</time>
      </trkpt>
      <trkpt lat="49.66176" lon="4.98118">
        <ele>154.43</ele>
        <time>2018-10-08T11:50:15Z</time>
      </trkpt>
      <trkpt lat="49.66191" lon="4.98089">
        <ele>155.87</ele>
        <time>2018-10-08T11:50:34Z</time>
      </trkpt>
      <trkpt lat="49.66209" lon="4.98058">
        <ele>156.35</ele>
        <time>2018-10-08T11:50:54Z</time>
      </trkpt>
      <trkpt lat="49.6623" lon="4.98021">
        <ele>156.83</ele>
        <time>2018-10-08T11:51:18Z</time>
      </trkpt>
      <trkpt lat="49.66246" lon="4.97991">
        <ele>157.31</ele>
        <time>2018-10-08T11:51:38Z</time>
      </trkpt>
      <trkpt lat="49.66264" lon="4.97955">
        <ele>158.27</ele>
        <time>2018-10-08T11:52:00Z</time>
      </trkpt>
      <trkpt lat="49.66279" lon="4.97925">
        <ele>159.24</ele>
        <time>2018-10-08T11:52:20Z</time>
      </trkpt>
      <trkpt lat="49.66296" lon="4.9789">
        <ele>159.72</ele>
        <time>2018-10-08T11:52:43Z</time>
      </trkpt>
      <trkpt lat="49.6631" lon="4.97858">
        <ele>163.08</ele>
        <time>2018-10-08T11:53:03Z</time>
      </trkpt>
      <trkpt lat="49.66331" lon="4.97821">
        <ele>169.33</ele>
        <time>2018-10-08T11:53:27Z</time>
      </trkpt>
      <trkpt lat="49.66351" lon="4.97786">
        <ele>175.1</ele>
        <time>2018-10-08T11:53:52Z</time>
      </trkpt>
      <trkpt lat="49.66369" lon="4.97752">
        <ele>178.94</ele>
        <time>2018-10-08T11:54:15Z</time>
      </trkpt>
      <trkpt lat="49.66387" lon="4.97716">
        <ele>182.31</ele>
        <time>2018-10-08T11:54:39Z</time>
      </trkpt>
      <trkpt lat="49.66406" lon="4.97678">
        <ele>184.71</ele>
        <time>2018-10-08T11:55:04Z</time>
      </trkpt>
      <trkpt lat="49.66428" lon="4.97642">
        <ele>188.56</ele>
        <time>2018-10-08T11:55:28Z</time>
      </trkpt>
      <trkpt lat="49.66444" lon="4.9761">
        <ele>185.19</ele>
        <time>2018-10-08T11:55:49Z</time>
      </trkpt>
      <trkpt lat="49.66461" lon="4.97575">
        <ele>178.94</ele>
        <time>2018-10-08T11:56:11Z</time>
      </trkpt>
      <trkpt lat="49.66478" lon="4.9754">
        <ele>174.62</ele>
        <time>2018-10-08T11:56:34Z</time>
      </trkpt>
      <trkpt lat="49.66498" lon="4.97504">
        <ele>172.69</ele>
        <time>2018-10-08T11:56:57Z</time>
      </trkpt>
      <trkpt lat="49.66513" lon="4.97471">
        <ele>171.73</ele>
        <time>2018-10-08T11:57:18Z</time>
      </trkpt>
      <trkpt lat="49.66526" lon="4.97441">
        <ele>172.21</ele>
        <time>2018-10-08T11:57:37Z</time>
      </trkpt>
      <trkpt lat="49.66537" lon="4.97411">
        <ele>169.33</ele>
        <time>2018-10-08T11:57:57Z</time>
      </trkpt>
      <trkpt lat="49.66539" lon="4.97407">
        <ele>168.37</ele>
        <time>2018-10-08T11:58:01Z</time>
      </trkpt>
      <trkpt lat="49.66559" lon="4.97375">
        <ele>164.04</ele>
        <time>2018-10-08T11:58:22Z</time>
      </trkpt>
      <trkpt lat="49.66573" lon="4.97348">
        <ele>163.08</ele>
        <time>2018-10-08T11:58:39Z</time>
      </trkpt>
      <trkpt lat="49.6659" lon="4.97313">
        <ele>164.04</ele>
        <time>2018-10-08T11:59:01Z</time>
      </trkpt>
      <trkpt lat="49.6661" lon="4.97275">
        <ele>162.12</ele>
        <time>2018-10-08T11:59:25Z</time>
      </trkpt>
      <trkpt lat="49.66625" lon="4.97242">
        <ele>158.75</ele>
        <time>2018-10-08T11:59:46Z</time>
      </trkpt>
      <trkpt lat="49.66635" lon="4.97209">
        <ele>159.24</ele>
        <time>2018-10-08T12:00:04Z</time>
      </trkpt>
      <trkpt lat="49.66646" lon="4.97171">
        <ele>159.24</ele>
        <time>2018-10-08T12:00:26Z</time>
      </trkpt>
      <trkpt lat="49.66658" lon="4.97131">
        <ele>159.72</ele>
        <time>2018-10-08T12:00:48Z</time>
      </trkpt>
      <trkpt lat="49.66671" lon="4.97096">
        <ele>161.16</ele>
        <time>2018-10-08T12:01:08Z</time>
      </trkpt>
      <trkpt lat="49.66687" lon="4.9706">
        <ele>161.64</ele>
        <time>2018-10-08T12:01:31Z</time>
      </trkpt>
      <trkpt lat="49.66704" lon="4.97026">
        <ele>160.68</ele>
        <time>2018-10-08T12:01:54Z</time>
      </trkpt>
      <trkpt lat="49.66722" lon="4.96996">
        <ele>157.79</ele>
        <time>2018-10-08T12:02:15Z</time>
      </trkpt>
      <trkpt lat="49.66742" lon="4.96965">
        <ele>154.43</ele>
        <time>2018-10-08T12:02:36Z</time>
      </trkpt>
      <trkpt lat="49.6676" lon="4.96942">
        <ele>152.03</ele>
        <time>2018-10-08T12:02:56Z</time>
      </trkpt>
      <trkpt lat="49.66771" lon="4.96923">
        <ele>148.66</ele>
        <time>2018-10-08T12:03:14Z</time>
      </trkpt>
      <trkpt lat="49.66783" lon="4.96897">
        <ele>150.1</ele>
        <time>2018-10-08T12:03:29Z</time>
      </trkpt>
      <trkpt lat="49.66794" lon="4.96872">
        <ele>152.03</ele>
        <time>2018-10-08T12:03:46Z</time>
      </trkpt>
      <trkpt lat="49.66808" lon="4.96841">
        <ele>152.99</ele>
        <time>2018-10-08T12:04:05Z</time>
      </trkpt>
      <trkpt lat="49.66813" lon="4.96822">
        <ele>153.95</ele>
        <time>2018-10-08T12:04:15Z</time>
      </trkpt>
      <trkpt lat="49.66823" lon="4.96784">
        <ele>155.87</ele>
        <time>2018-10-08T12:04:34Z</time>
      </trkpt>
      <trkpt lat="49.66831" lon="4.96741">
        <ele>157.79</ele>
        <time>2018-10-08T12:04:57Z</time>
      </trkpt>
      <trkpt lat="49.66825" lon="4.96702">
        <ele>153.47</ele>
        <time>2018-10-08T12:05:17Z</time>
      </trkpt>
      <trkpt lat="49.66818" lon="4.96665">
        <ele>148.66</ele>
        <time>2018-10-08T12:05:40Z</time>
      </trkpt>
      <trkpt lat="49.66811" lon="4.96628">
        <ele>146.74</ele>
        <time>2018-10-08T12:06:01Z</time>
      </trkpt>
      <trkpt lat="49.66803" lon="4.96586">
        <ele>144.82</ele>
        <time>2018-10-08T12:06:24Z</time>
      </trkpt>
      <trkpt lat="49.66797" lon="4.96547">
        <ele>144.82</ele>
        <time>2018-10-08T12:06:45Z</time>
      </trkpt>
      <trkpt lat="49.66791" lon="4.96503">
        <ele>146.74</ele>
        <time>2018-10-08T12:07:07Z</time>
      </trkpt>
      <trkpt lat="49.66785" lon="4.96461">
        <ele>151.06</ele>
        <time>2018-10-08T12:07:29Z</time>
      </trkpt>
      <trkpt lat="49.66775" lon="4.96419">
        <ele>149.14</ele>
        <time>2018-10-08T12:07:52Z</time>
      </trkpt>
      <trkpt lat="49.66764" lon="4.96375">
        <ele>144.34</ele>
        <time>2018-10-08T12:08:16Z</time>
      </trkpt>
      <trkpt lat="49.6676" lon="4.96339">
        <ele>139.53</ele>
        <time>2018-10-08T12:08:36Z</time>
      </trkpt>
      <trkpt lat="49.66761" lon="4.96292">
        <ele>139.05</ele>
        <time>2018-10-08T12:08:58Z</time>
      </trkpt>
      <trkpt lat="49.66767" lon="4.96254">
        <ele>140.49</ele>
        <time>2018-10-08T12:09:19Z</time>
      </trkpt>
      <trkpt lat="49.66777" lon="4.96222">
        <ele>144.34</ele>
        <time>2018-10-08T12:09:35Z</time>
      </trkpt>
      <trkpt lat="49.66789" lon="4.96189">
        <ele>149.14</ele>
        <time>2018-10-08T12:09:53Z</time>
      </trkpt>
      <trkpt lat="49.66803" lon="4.96148">
        <ele>154.43</ele>
        <time>2018-10-08T12:10:17Z</time>
      </trkpt>
      <trkpt lat="49.66816" lon="4.9611">
        <ele>157.31</ele>
        <time>2018-10-08T12:10:39Z</time>
      </trkpt>
      <trkpt lat="49.66831" lon="4.96072">
        <ele>159.24</ele>
        <time>2018-10-08T12:11:02Z</time>
      </trkpt>
      <trkpt lat="49.66847" lon="4.96037">
        <ele>161.16</ele>
        <time>2018-10-08T12:11:24Z</time>
      </trkpt>
      <trkpt lat="49.66864" lon="4.96004">
        <ele>161.64</ele>
        <time>2018-10-08T12:11:45Z</time>
      </trkpt>
      <trkpt lat="49.66874" lon="4.95973">
        <ele>160.68</ele>
        <time>2018-10-08T12:12:03Z</time>
      </trkpt>
      <trkpt lat="49.66876" lon="4.95959">
        <ele>159.72</ele>
        <time>2018-10-08T12:12:15Z</time>
      </trkpt>
      <trkpt lat="49.6687" lon="4.95964">
        <ele>159.24</ele>
        <time>2018-10-08T12:12:20Z</time>
      </trkpt>
      <trkpt lat="49.66857" lon="4.95993">
        <ele>156.35</ele>
        <time>2018-10-08T12:12:39Z</time>
      </trkpt>
      <trkpt lat="49.66844" lon="4.96018">
        <ele>154.91</ele>
        <time>2018-10-08T12:12:55Z</time>
      </trkpt>
      <trkpt lat="49.66831" lon="4.9602">
        <ele>156.35</ele>
        <time>2018-10-08T12:13:11Z</time>
      </trkpt>
      <trkpt lat="49.66826" lon="4.96015">
        <ele>157.31</ele>
        <time>2018-10-08T12:13:17Z</time>
      </trkpt>
      <trkpt lat="49.66819" lon="4.95997">
        <ele>158.27</ele>
        <time>2018-10-08T12:13:32Z</time>
      </trkpt>
      <trkpt lat="49.6682" lon="4.95995">
        <ele>158.75</ele>
        <time>2018-10-08T12:13:33Z</time>
      </trkpt>
      <trkpt lat="49.66831" lon="4.95957">
        <ele>161.16</ele>
        <time>2018-10-08T12:13:53Z</time>
      </trkpt>
      <trkpt lat="49.66843" lon="4.95923">
        <ele>162.6</ele>
        <time>2018-10-08T12:14:14Z</time>
      </trkpt>
      <trkpt lat="49.66855" lon="4.95891">
        <ele>164.04</ele>
        <time>2018-10-08T12:14:33Z</time>
      </trkpt>
      <trkpt lat="49.66852" lon="4.95874">
        <ele>162.12</ele>
        <time>2018-10-08T12:14:43Z</time>
      </trkpt>
      <trkpt lat="49.66837" lon="4.95849">
        <ele>160.2</ele>
        <time>2018-10-08T12:15:03Z</time>
      </trkpt>
      <trkpt lat="49.66812" lon="4.95828">
        <ele>157.31</ele>
        <time>2018-10-08T12:15:23Z</time>
      </trkpt>
      <trkpt lat="49.66794" lon="4.95803">
        <ele>153.47</ele>
        <time>2018-10-08T12:15:42Z</time>
      </trkpt>
      <trkpt lat="49.66781" lon="4.95783">
        <ele>152.03</ele>
        <time>2018-10-08T12:15:59Z</time>
      </trkpt>
      <trkpt lat="49.66781" lon="4.95785">
        <ele>151.06</ele>
        <time>2018-10-08T12:16:14Z</time>
      </trkpt>
      <trkpt lat="49.66765" lon="4.95762">
        <ele>149.14</ele>
        <time>2018-10-08T12:16:31Z</time>
      </trkpt>
      <trkpt lat="49.66754" lon="4.95739">
        <ele>149.14</ele>
        <time>2018-10-08T12:16:47Z</time>
      </trkpt>
      <trkpt lat="49.66754" lon="4.95734">
        <ele>149.14</ele>
        <time>2018-10-08T12:16:51Z</time>
      </trkpt>
      <trkpt lat="49.66768" lon="4.95704">
        <ele>151.06</ele>
        <time>2018-10-08T12:17:07Z</time>
      </trkpt>
      <trkpt lat="49.66777" lon="4.95675">
        <ele>153.95</ele>
        <time>2018-10-08T12:17:22Z</time>
      </trkpt>
      <trkpt lat="49.66786" lon="4.95644">
        <ele>157.79</ele>
        <time>2018-10-08T12:17:39Z</time>
      </trkpt>
      <trkpt lat="49.66801" lon="4.95608">
        <ele>158.75</ele>
        <time>2018-10-08T12:18:01Z</time>
      </trkpt>
      <trkpt lat="49.66815" lon="4.9558">
        <ele>160.2</ele>
        <time>2018-10-08T12:18:19Z</time>
      </trkpt>
      <trkpt lat="49.66829" lon="4.95553">
        <ele>160.68</ele>
        <time>2018-10-08T12:18:36Z</time>
      </trkpt>
      <trkpt lat="49.6684" lon="4.95517">
        <ele>165</ele>
        <time>2018-10-08T12:18:56Z</time>
      </trkpt>
      <trkpt lat="49.66852" lon="4.95485">
        <ele>164.52</ele>
        <time>2018-10-08T12:19:15Z</time>
      </trkpt>
      <trkpt lat="49.66844" lon="4.95472">
        <ele>163.08</ele>
        <time>2018-10-08T12:19:28Z</time>
      </trkpt>
      <trkpt lat="49.66842" lon="4.95471">
        <ele>163.08</ele>
        <time>2018-10-08T12:19:29Z</time>
      </trkpt>
      <trkpt lat="49.6682" lon="4.95459">
        <ele>155.87</ele>
        <time>2018-10-08T12:19:47Z</time>
      </trkpt>
      <trkpt lat="49.668" lon="4.95455">
        <ele>151.54</ele>
        <time>2018-10-08T12:20:02Z</time>
      </trkpt>
      <trkpt lat="49.6678" lon="4.95446">
        <ele>150.1</ele>
        <time>2018-10-08T12:20:20Z</time>
      </trkpt>
      <trkpt lat="49.66757" lon="4.95442">
        <ele>150.58</ele>
        <time>2018-10-08T12:20:36Z</time>
      </trkpt>
      <trkpt lat="49.66735" lon="4.95435">
        <ele>150.58</ele>
        <time>2018-10-08T12:20:55Z</time>
      </trkpt>
      <trkpt lat="49.66713" lon="4.95429">
        <ele>152.51</ele>
        <time>2018-10-08T12:21:11Z</time>
      </trkpt>
      <trkpt lat="49.66701" lon="4.95421">
        <ele>153.47</ele>
        <time>2018-10-08T12:21:20Z</time>
      </trkpt>
      <trkpt lat="49.66676" lon="4.95404">
        <ele>155.39</ele>
        <time>2018-10-08T12:21:40Z</time>
      </trkpt>
      <trkpt lat="49.66657" lon="4.95383">
        <ele>152.99</ele>
        <time>2018-10-08T12:21:58Z</time>
      </trkpt>
      <trkpt lat="49.66649" lon="4.95375">
        <ele>152.03</ele>
        <time>2018-10-08T12:22:08Z</time>
      </trkpt>
      <trkpt lat="49.66641" lon="4.95346">
        <ele>152.03</ele>
        <time>2018-10-08T12:22:23Z</time>
      </trkpt>
      <trkpt lat="49.66647" lon="4.95329">
        <ele>157.31</ele>
        <time>2018-10-08T12:22:34Z</time>
      </trkpt>
      <trkpt lat="49.66659" lon="4.95308">
        <ele>159.24</ele>
        <time>2018-10-08T12:22:51Z</time>
      </trkpt>
      <trkpt lat="49.66677" lon="4.95286">
        <ele>165</ele>
        <time>2018-10-08T12:23:08Z</time>
      </trkpt>
      <trkpt lat="49.66688" lon="4.9527">
        <ele>167.41</ele>
        <time>2018-10-08T12:23:21Z</time>
      </trkpt>
      <trkpt lat="49.667" lon="4.95246">
        <ele>171.25</ele>
        <time>2018-10-08T12:23:38Z</time>
      </trkpt>
      <trkpt lat="49.66709" lon="4.95225">
        <ele>172.69</ele>
        <time>2018-10-08T12:23:52Z</time>
      </trkpt>
      <trkpt lat="49.66722" lon="4.95194">
        <ele>177.5</ele>
        <time>2018-10-08T12:24:11Z</time>
      </trkpt>
      <trkpt lat="49.66733" lon="4.95166">
        <ele>180.87</ele>
        <time>2018-10-08T12:24:29Z</time>
      </trkpt>
      <trkpt lat="49.66744" lon="4.95144">
        <ele>183.27</ele>
        <time>2018-10-08T12:24:45Z</time>
      </trkpt>
      <trkpt lat="49.66755" lon="4.95115">
        <ele>186.15</ele>
        <time>2018-10-08T12:25:03Z</time>
      </trkpt>
      <trkpt lat="49.66765" lon="4.95089">
        <ele>187.11</ele>
        <time>2018-10-08T12:25:20Z</time>
      </trkpt>
      <trkpt lat="49.66768" lon="4.95058">
        <ele>185.67</ele>
        <time>2018-10-08T12:25:37Z</time>
      </trkpt>
      <trkpt lat="49.66768" lon="4.9505">
        <ele>185.67</ele>
        <time>2018-10-08T12:25:42Z</time>
      </trkpt>
      <trkpt lat="49.66772" lon="4.95017">
        <ele>187.59</ele>
        <time>2018-10-08T12:26:00Z</time>
      </trkpt>
      <trkpt lat="49.66776" lon="4.94988">
        <ele>189.04</ele>
        <time>2018-10-08T12:26:16Z</time>
      </trkpt>
      <trkpt lat="49.66784" lon="4.94951">
        <ele>189.04</ele>
        <time>2018-10-08T12:26:36Z</time>
      </trkpt>
      <trkpt lat="49.66787" lon="4.94917">
        <ele>189.52</ele>
        <time>2018-10-08T12:26:55Z</time>
      </trkpt>
      <trkpt lat="49.66792" lon="4.94885">
        <ele>188.56</ele>
        <time>2018-10-08T12:27:13Z</time>
      </trkpt>
      <trkpt lat="49.66795" lon="4.94854">
        <ele>189.04</ele>
        <time>2018-10-08T12:27:31Z</time>
      </trkpt>
      <trkpt lat="49.66796" lon="4.94847">
        <ele>190</ele>
        <time>2018-10-08T12:27:35Z</time>
      </trkpt>
      <trkpt lat="49.668" lon="4.94822">
        <ele>191.44</ele>
        <time>2018-10-08T12:27:49Z</time>
      </trkpt>
      <trkpt lat="49.66805" lon="4.94791">
        <ele>193.36</ele>
        <time>2018-10-08T12:28:06Z</time>
      </trkpt>
      <trkpt lat="49.66807" lon="4.94763">
        <ele>196.25</ele>
        <time>2018-10-08T12:28:22Z</time>
      </trkpt>
      <trkpt lat="49.66807" lon="4.94727">
        <ele>199.61</ele>
        <time>2018-10-08T12:28:41Z</time>
      </trkpt>
      <trkpt lat="49.66807" lon="4.94692">
        <ele>201.53</ele>
        <time>2018-10-08T12:29:00Z</time>
      </trkpt>
      <trkpt lat="49.66806" lon="4.94656">
        <ele>200.57</ele>
        <time>2018-10-08T12:29:20Z</time>
      </trkpt>
      <trkpt lat="49.66805" lon="4.94618">
        <ele>201.53</ele>
        <time>2018-10-08T12:29:40Z</time>
      </trkpt>
      <trkpt lat="49.66804" lon="4.94583">
        <ele>201.05</ele>
        <time>2018-10-08T12:29:59Z</time>
      </trkpt>
      <trkpt lat="49.66794" lon="4.94546">
        <ele>200.57</ele>
        <time>2018-10-08T12:30:20Z</time>
      </trkpt>
      <trkpt lat="49.66783" lon="4.94512">
        <ele>202.01</ele>
        <time>2018-10-08T12:30:41Z</time>
      </trkpt>
      <trkpt lat="49.66773" lon="4.94474">
        <ele>203.46</ele>
        <time>2018-10-08T12:31:04Z</time>
      </trkpt>
      <trkpt lat="49.66764" lon="4.94443">
        <ele>204.9</ele>
        <time>2018-10-08T12:31:23Z</time>
      </trkpt>
      <trkpt lat="49.66753" lon="4.94405">
        <ele>206.82</ele>
        <time>2018-10-08T12:31:45Z</time>
      </trkpt>
      <trkpt lat="49.66744" lon="4.94374">
        <ele>207.78</ele>
        <time>2018-10-08T12:32:03Z</time>
      </trkpt>
      <trkpt lat="49.66736" lon="4.94339">
        <ele>209.7</ele>
        <time>2018-10-08T12:32:23Z</time>
      </trkpt>
      <trkpt lat="49.66728" lon="4.94309">
        <ele>211.63</ele>
        <time>2018-10-08T12:32:42Z</time>
      </trkpt>
      <trkpt lat="49.66718" lon="4.94279">
        <ele>213.55</ele>
        <time>2018-10-08T12:33:01Z</time>
      </trkpt>
      <trkpt lat="49.66707" lon="4.94245">
        <ele>215.95</ele>
        <time>2018-10-08T12:33:20Z</time>
      </trkpt>
      <trkpt lat="49.66698" lon="4.94219">
        <ele>216.43</ele>
        <time>2018-10-08T12:33:37Z</time>
      </trkpt>
      <trkpt lat="49.66691" lon="4.94198">
        <ele>217.4</ele>
        <time>2018-10-08T12:33:51Z</time>
      </trkpt>
      <trkpt lat="49.66682" lon="4.94169">
        <ele>218.84</ele>
        <time>2018-10-08T12:34:08Z</time>
      </trkpt>
      <trkpt lat="49.66671" lon="4.94136">
        <ele>220.76</ele>
        <time>2018-10-08T12:34:29Z</time>
      </trkpt>
      <trkpt lat="49.66659" lon="4.94101">
        <ele>222.2</ele>
        <time>2018-10-08T12:34:49Z</time>
      </trkpt>
      <trkpt lat="49.66647" lon="4.94065">
        <ele>222.2</ele>
        <time>2018-10-08T12:35:11Z</time>
      </trkpt>
      <trkpt lat="49.66645" lon="4.94059">
        <ele>222.2</ele>
        <time>2018-10-08T12:35:15Z</time>
      </trkpt>
      <trkpt lat="49.66635" lon="4.9403">
        <ele>223.16</ele>
        <time>2018-10-08T12:35:34Z</time>
      </trkpt>
      <trkpt lat="49.66623" lon="4.93999">
        <ele>227.01</ele>
        <time>2018-10-08T12:35:54Z</time>
      </trkpt>
      <trkpt lat="49.66614" lon="4.93976">
        <ele>231.33</ele>
        <time>2018-10-08T12:36:11Z</time>
      </trkpt>
      <trkpt lat="49.66602" lon="4.93948">
        <ele>235.66</ele>
        <time>2018-10-08T12:36:30Z</time>
      </trkpt>
      <trkpt lat="49.66591" lon="4.93915">
        <ele>236.62</ele>
        <time>2018-10-08T12:36:49Z</time>
      </trkpt>
      <trkpt lat="49.66579" lon="4.93884">
        <ele>238.54</ele>
        <time>2018-10-08T12:37:10Z</time>
      </trkpt>
      <trkpt lat="49.66567" lon="4.93843">
        <ele>240.95</ele>
        <time>2018-10-08T12:37:35Z</time>
      </trkpt>
      <trkpt lat="49.66557" lon="4.9382">
        <ele>244.31</ele>
        <time>2018-10-08T12:37:52Z</time>
      </trkpt>
      <trkpt lat="49.66545" lon="4.93785">
        <ele>246.23</ele>
        <time>2018-10-08T12:38:14Z</time>
      </trkpt>
      <trkpt lat="49.6653" lon="4.93757">
        <ele>246.23</ele>
        <time>2018-10-08T12:38:33Z</time>
      </trkpt>
      <trkpt lat="49.66515" lon="4.93726">
        <ele>247.2</ele>
        <time>2018-10-08T12:38:54Z</time>
      </trkpt>
      <trkpt lat="49.66503" lon="4.93701">
        <ele>247.68</ele>
        <time>2018-10-08T12:39:12Z</time>
      </trkpt>
      <trkpt lat="49.66489" lon="4.93677">
        <ele>248.16</ele>
        <time>2018-10-08T12:39:30Z</time>
      </trkpt>
      <trkpt lat="49.66475" lon="4.93655">
        <ele>249.6</ele>
        <time>2018-10-08T12:39:47Z</time>
      </trkpt>
      <trkpt lat="49.66461" lon="4.93634">
        <ele>252</ele>
        <time>2018-10-08T12:40:04Z</time>
      </trkpt>
      <trkpt lat="49.66451" lon="4.93619">
        <ele>253.93</ele>
        <time>2018-10-08T12:40:21Z</time>
      </trkpt>
      <trkpt lat="49.66436" lon="4.93595">
        <ele>253.93</ele>
        <time>2018-10-08T12:40:37Z</time>
      </trkpt>
      <trkpt lat="49.66417" lon="4.93577">
        <ele>257.29</ele>
        <time>2018-10-08T12:40:54Z</time>
      </trkpt>
      <trkpt lat="49.66398" lon="4.93566">
        <ele>260.17</ele>
        <time>2018-10-08T12:41:11Z</time>
      </trkpt>
      <trkpt lat="49.6638" lon="4.9356">
        <ele>262.1</ele>
        <time>2018-10-08T12:41:26Z</time>
      </trkpt>
      <trkpt lat="49.66357" lon="4.93553">
        <ele>264.5</ele>
        <time>2018-10-08T12:41:44Z</time>
      </trkpt>
      <trkpt lat="49.66341" lon="4.93541">
        <ele>265.94</ele>
        <time>2018-10-08T12:41:59Z</time>
      </trkpt>
      <trkpt lat="49.66326" lon="4.93526">
        <ele>269.31</ele>
        <time>2018-10-08T12:42:16Z</time>
      </trkpt>
      <trkpt lat="49.66305" lon="4.93523">
        <ele>271.23</ele>
        <time>2018-10-08T12:42:33Z</time>
      </trkpt>
      <trkpt lat="49.66282" lon="4.93527">
        <ele>269.31</ele>
        <time>2018-10-08T12:42:51Z</time>
      </trkpt>
      <trkpt lat="49.66279" lon="4.93528">
        <ele>269.79</ele>
        <time>2018-10-08T12:42:53Z</time>
      </trkpt>
      <trkpt lat="49.66263" lon="4.93541">
        <ele>269.31</ele>
        <time>2018-10-08T12:43:08Z</time>
      </trkpt>
      <trkpt lat="49.66243" lon="4.93551">
        <ele>269.31</ele>
        <time>2018-10-08T12:43:26Z</time>
      </trkpt>
      <trkpt lat="49.66225" lon="4.93564">
        <ele>268.83</ele>
        <time>2018-10-08T12:43:42Z</time>
      </trkpt>
      <trkpt lat="49.66203" lon="4.9358">
        <ele>268.83</ele>
        <time>2018-10-08T12:44:01Z</time>
      </trkpt>
      <trkpt lat="49.6619" lon="4.93613">
        <ele>269.79</ele>
        <time>2018-10-08T12:44:21Z</time>
      </trkpt>
      <trkpt lat="49.66171" lon="4.9364">
        <ele>270.27</ele>
        <time>2018-10-08T12:44:43Z</time>
      </trkpt>
      <trkpt lat="49.66168" lon="4.93647">
        <ele>272.19</ele>
        <time>2018-10-08T12:44:47Z</time>
      </trkpt>
      <trkpt lat="49.66152" lon="4.93666">
        <ele>275.56</ele>
        <time>2018-10-08T12:45:04Z</time>
      </trkpt>
      <trkpt lat="49.66139" lon="4.93692">
        <ele>275.07</ele>
        <time>2018-10-08T12:45:22Z</time>
      </trkpt>
      <trkpt lat="49.66127" lon="4.93724">
        <ele>274.11</ele>
        <time>2018-10-08T12:45:43Z</time>
      </trkpt>
      <trkpt lat="49.66116" lon="4.93751">
        <ele>274.11</ele>
        <time>2018-10-08T12:46:01Z</time>
      </trkpt>
      <trkpt lat="49.6611" lon="4.93758">
        <ele>274.11</ele>
        <time>2018-10-08T12:46:07Z</time>
      </trkpt>
      <trkpt lat="49.66094" lon="4.93774">
        <ele>273.15</ele>
        <time>2018-10-08T12:46:22Z</time>
      </trkpt>
      <trkpt lat="49.66078" lon="4.93796">
        <ele>264.98</ele>
        <time>2018-10-08T12:46:39Z</time>
      </trkpt>
      <trkpt lat="49.66075" lon="4.93799">
        <ele>262.1</ele>
        <time>2018-10-08T12:46:43Z</time>
      </trkpt>
      <trkpt lat="49.66051" lon="4.93814">
        <ele>258.73</ele>
        <time>2018-10-08T12:47:04Z</time>
      </trkpt>
      <trkpt lat="49.66031" lon="4.93827">
        <ele>259.69</ele>
        <time>2018-10-08T12:47:22Z</time>
      </trkpt>
      <trkpt lat="49.66014" lon="4.93844">
        <ele>259.69</ele>
        <time>2018-10-08T12:47:39Z</time>
      </trkpt>
      <trkpt lat="49.65994" lon="4.93864">
        <ele>260.65</ele>
        <time>2018-10-08T12:48:01Z</time>
      </trkpt>
      <trkpt lat="49.65971" lon="4.9388">
        <ele>259.69</ele>
        <time>2018-10-08T12:48:21Z</time>
      </trkpt>
      <trkpt lat="49.65948" lon="4.93898">
        <ele>254.89</ele>
        <time>2018-10-08T12:48:42Z</time>
      </trkpt>
      <trkpt lat="49.65926" lon="4.93914">
        <ele>250.08</ele>
        <time>2018-10-08T12:49:02Z</time>
      </trkpt>
      <trkpt lat="49.6591" lon="4.93925">
        <ele>249.6</ele>
        <time>2018-10-08T12:49:19Z</time>
      </trkpt>
      <trkpt lat="49.65908" lon="4.93922">
        <ele>249.6</ele>
        <time>2018-10-08T12:49:39Z</time>
      </trkpt>
      <trkpt lat="49.65908" lon="4.93923">
        <ele>248.64</ele>
        <time>2018-10-08T12:50:05Z</time>
      </trkpt>
      <trkpt lat="49.65909" lon="4.93924">
        <ele>248.16</ele>
        <time>2018-10-08T12:50:35Z</time>
      </trkpt>
      <trkpt lat="49.65908" lon="4.93925">
        <ele>246.23</ele>
        <time>2018-10-08T12:51:07Z</time>
      </trkpt>
      <trkpt lat="49.65908" lon="4.93925">
        <ele>245.75</ele>
        <time>2018-10-08T12:51:36Z</time>
      </trkpt>
      <trkpt lat="49.65908" lon="4.93926">
        <ele>245.75</ele>
        <time>2018-10-08T12:52:02Z</time>
      </trkpt>
      <trkpt lat="49.65908" lon="4.93926">
        <ele>245.75</ele>
        <time>2018-10-08T12:52:33Z</time>
      </trkpt>
      <trkpt lat="49.65908" lon="4.93926">
        <ele>245.75</ele>
        <time>2018-10-08T12:53:02Z</time>
      </trkpt>
      <trkpt lat="49.65908" lon="4.93927">
        <ele>245.75</ele>
        <time>2018-10-08T12:53:37Z</time>
      </trkpt>
      <trkpt lat="49.65908" lon="4.93926">
        <ele>245.27</ele>
        <time>2018-10-08T12:54:10Z</time>
      </trkpt>
      <trkpt lat="49.65908" lon="4.93924">
        <ele>245.27</ele>
        <time>2018-10-08T12:54:27Z</time>
      </trkpt>
      <trkpt lat="49.65903" lon="4.93919">
        <ele>244.79</ele>
        <time>2018-10-08T12:54:44Z</time>
      </trkpt>
      <trkpt lat="49.65902" lon="4.93919">
        <ele>244.79</ele>
        <time>2018-10-08T12:55:04Z</time>
      </trkpt>
      <trkpt lat="49.65901" lon="4.93918">
        <ele>244.31</ele>
        <time>2018-10-08T12:55:36Z</time>
      </trkpt>
      <trkpt lat="49.65902" lon="4.93918">
        <ele>244.31</ele>
        <time>2018-10-08T12:56:03Z</time>
      </trkpt>
      <trkpt lat="49.65902" lon="4.93919">
        <ele>244.31</ele>
        <time>2018-10-08T12:56:21Z</time>
      </trkpt>
      <trkpt lat="49.65904" lon="4.93928">
        <ele>245.75</ele>
        <time>2018-10-08T12:56:31Z</time>
      </trkpt>
      <trkpt lat="49.65898" lon="4.93934">
        <ele>243.35</ele>
        <time>2018-10-08T12:56:41Z</time>
      </trkpt>
      <trkpt lat="49.65878" lon="4.93949">
        <ele>239.99</ele>
        <time>2018-10-08T12:57:00Z</time>
      </trkpt>
      <trkpt lat="49.65859" lon="4.93955">
        <ele>240.95</ele>
        <time>2018-10-08T12:57:18Z</time>
      </trkpt>
      <trkpt lat="49.65836" lon="4.9396">
        <ele>239.02</ele>
        <time>2018-10-08T12:57:38Z</time>
      </trkpt>
      <trkpt lat="49.65819" lon="4.93968">
        <ele>239.51</ele>
        <time>2018-10-08T12:57:58Z</time>
      </trkpt>
      <trkpt lat="49.65803" lon="4.93975">
        <ele>239.99</ele>
        <time>2018-10-08T12:58:13Z</time>
      </trkpt>
      <trkpt lat="49.65781" lon="4.93987">
        <ele>239.99</ele>
        <time>2018-10-08T12:58:31Z</time>
      </trkpt>
      <trkpt lat="49.65759" lon="4.93999">
        <ele>237.58</ele>
        <time>2018-10-08T12:58:49Z</time>
      </trkpt>
      <trkpt lat="49.65739" lon="4.94012">
        <ele>234.7</ele>
        <time>2018-10-08T12:59:07Z</time>
      </trkpt>
      <trkpt lat="49.65721" lon="4.94025">
        <ele>231.33</ele>
        <time>2018-10-08T12:59:25Z</time>
      </trkpt>
      <trkpt lat="49.65701" lon="4.9404">
        <ele>229.89</ele>
        <time>2018-10-08T12:59:43Z</time>
      </trkpt>
      <trkpt lat="49.65699" lon="4.94042">
        <ele>229.41</ele>
        <time>2018-10-08T12:59:46Z</time>
      </trkpt>
      <trkpt lat="49.65678" lon="4.9406">
        <ele>226.53</ele>
        <time>2018-10-08T13:00:05Z</time>
      </trkpt>
      <trkpt lat="49.65661" lon="4.94078">
        <ele>224.12</ele>
        <time>2018-10-08T13:00:23Z</time>
      </trkpt>
      <trkpt lat="49.65645" lon="4.94099">
        <ele>222.2</ele>
        <time>2018-10-08T13:00:41Z</time>
      </trkpt>
      <trkpt lat="49.6564" lon="4.94107">
        <ele>222.2</ele>
        <time>2018-10-08T13:00:48Z</time>
      </trkpt>
      <trkpt lat="49.65625" lon="4.94135">
        <ele>219.8</ele>
        <time>2018-10-08T13:01:08Z</time>
      </trkpt>
      <trkpt lat="49.65613" lon="4.94166">
        <ele>216.91</ele>
        <time>2018-10-08T13:01:28Z</time>
      </trkpt>
      <trkpt lat="49.65598" lon="4.94199">
        <ele>213.55</ele>
        <time>2018-10-08T13:01:49Z</time>
      </trkpt>
      <trkpt lat="49.65584" lon="4.94226">
        <ele>209.7</ele>
        <time>2018-10-08T13:02:08Z</time>
      </trkpt>
      <trkpt lat="49.65565" lon="4.9425">
        <ele>207.78</ele>
        <time>2018-10-08T13:02:28Z</time>
      </trkpt>
      <trkpt lat="49.65545" lon="4.9427">
        <ele>206.34</ele>
        <time>2018-10-08T13:02:48Z</time>
      </trkpt>
      <trkpt lat="49.65526" lon="4.94287">
        <ele>205.38</ele>
        <time>2018-10-08T13:03:06Z</time>
      </trkpt>
      <trkpt lat="49.65505" lon="4.94305">
        <ele>203.46</ele>
        <time>2018-10-08T13:03:25Z</time>
      </trkpt>
      <trkpt lat="49.65483" lon="4.94323">
        <ele>201.53</ele>
        <time>2018-10-08T13:03:46Z</time>
      </trkpt>
      <trkpt lat="49.65465" lon="4.94342">
        <ele>200.57</ele>
        <time>2018-10-08T13:04:04Z</time>
      </trkpt>
      <trkpt lat="49.65448" lon="4.94363">
        <ele>200.09</ele>
        <time>2018-10-08T13:04:24Z</time>
      </trkpt>
      <trkpt lat="49.65436" lon="4.94396">
        <ele>202.01</ele>
        <time>2018-10-08T13:04:41Z</time>
      </trkpt>
      <trkpt lat="49.65432" lon="4.94429">
        <ele>197.69</ele>
        <time>2018-10-08T13:05:00Z</time>
      </trkpt>
      <trkpt lat="49.65432" lon="4.94463">
        <ele>195.28</ele>
        <time>2018-10-08T13:05:19Z</time>
      </trkpt>
      <trkpt lat="49.65432" lon="4.94498">
        <ele>192.4</ele>
        <time>2018-10-08T13:05:37Z</time>
      </trkpt>
      <trkpt lat="49.65433" lon="4.94527">
        <ele>190</ele>
        <time>2018-10-08T13:05:53Z</time>
      </trkpt>
      <trkpt lat="49.65433" lon="4.94546">
        <ele>188.56</ele>
        <time>2018-10-08T13:06:03Z</time>
      </trkpt>
      <trkpt lat="49.65433" lon="4.94575">
        <ele>186.15</ele>
        <time>2018-10-08T13:06:18Z</time>
      </trkpt>
      <trkpt lat="49.65431" lon="4.94607">
        <ele>184.23</ele>
        <time>2018-10-08T13:06:35Z</time>
      </trkpt>
      <trkpt lat="49.65416" lon="4.94629">
        <ele>183.75</ele>
        <time>2018-10-08T13:06:51Z</time>
      </trkpt>
      <trkpt lat="49.65414" lon="4.94632">
        <ele>183.75</ele>
        <time>2018-10-08T13:06:53Z</time>
      </trkpt>
      <trkpt lat="49.65416" lon="4.94645">
        <ele>182.79</ele>
        <time>2018-10-08T13:07:01Z</time>
      </trkpt>
      <trkpt lat="49.65442" lon="4.94661">
        <ele>177.98</ele>
        <time>2018-10-08T13:07:24Z</time>
      </trkpt>
      <trkpt lat="49.65461" lon="4.94679">
        <ele>174.14</ele>
        <time>2018-10-08T13:07:43Z</time>
      </trkpt>
      <trkpt lat="49.65466" lon="4.94694">
        <ele>174.62</ele>
        <time>2018-10-08T13:07:55Z</time>
      </trkpt>
      <trkpt lat="49.65468" lon="4.94727">
        <ele>173.66</ele>
        <time>2018-10-08T13:08:13Z</time>
      </trkpt>
      <trkpt lat="49.65466" lon="4.94737">
        <ele>172.69</ele>
        <time>2018-10-08T13:08:18Z</time>
      </trkpt>
      <trkpt lat="49.65462" lon="4.9476">
        <ele>170.29</ele>
        <time>2018-10-08T13:08:33Z</time>
      </trkpt>
      <trkpt lat="49.65448" lon="4.94794">
        <ele>171.73</ele>
        <time>2018-10-08T13:08:52Z</time>
      </trkpt>
      <trkpt lat="49.65446" lon="4.948">
        <ele>171.25</ele>
        <time>2018-10-08T13:08:56Z</time>
      </trkpt>
      <trkpt lat="49.65431" lon="4.94823">
        <ele>169.81</ele>
        <time>2018-10-08T13:09:15Z</time>
      </trkpt>
      <trkpt lat="49.65413" lon="4.9486">
        <ele>170.29</ele>
        <time>2018-10-08T13:09:38Z</time>
      </trkpt>
      <trkpt lat="49.65397" lon="4.94879">
        <ele>169.81</ele>
        <time>2018-10-08T13:09:54Z</time>
      </trkpt>
      <trkpt lat="49.65375" lon="4.9489">
        <ele>170.29</ele>
        <time>2018-10-08T13:10:13Z</time>
      </trkpt>
      <trkpt lat="49.65352" lon="4.94874">
        <ele>170.29</ele>
        <time>2018-10-08T13:10:33Z</time>
      </trkpt>
      <trkpt lat="49.6533" lon="4.94858">
        <ele>170.77</ele>
        <time>2018-10-08T13:10:52Z</time>
      </trkpt>
      <trkpt lat="49.65311" lon="4.94843">
        <ele>167.89</ele>
        <time>2018-10-08T13:11:11Z</time>
      </trkpt>
      <trkpt lat="49.65292" lon="4.94829">
        <ele>170.29</ele>
        <time>2018-10-08T13:11:31Z</time>
      </trkpt>
      <trkpt lat="49.65268" lon="4.94813">
        <ele>168.85</ele>
        <time>2018-10-08T13:11:53Z</time>
      </trkpt>
      <trkpt lat="49.65241" lon="4.94798">
        <ele>171.25</ele>
        <time>2018-10-08T13:12:16Z</time>
      </trkpt>
      <trkpt lat="49.65213" lon="4.94776">
        <ele>173.66</ele>
        <time>2018-10-08T13:12:37Z</time>
      </trkpt>
      <trkpt lat="49.65197" lon="4.9476">
        <ele>172.21</ele>
        <time>2018-10-08T13:12:53Z</time>
      </trkpt>
      <trkpt lat="49.65183" lon="4.94737">
        <ele>167.41</ele>
        <time>2018-10-08T13:13:11Z</time>
      </trkpt>
      <trkpt lat="49.65173" lon="4.94711">
        <ele>163.56</ele>
        <time>2018-10-08T13:13:28Z</time>
      </trkpt>
      <trkpt lat="49.65162" lon="4.94684">
        <ele>164.52</ele>
        <time>2018-10-08T13:13:45Z</time>
      </trkpt>
      <trkpt lat="49.6515" lon="4.94657">
        <ele>161.64</ele>
        <time>2018-10-08T13:14:03Z</time>
      </trkpt>
      <trkpt lat="49.65137" lon="4.94626">
        <ele>157.31</ele>
        <time>2018-10-08T13:14:22Z</time>
      </trkpt>
      <trkpt lat="49.65126" lon="4.94605">
        <ele>154.91</ele>
        <time>2018-10-08T13:14:36Z</time>
      </trkpt>
      <trkpt lat="49.65113" lon="4.94575">
        <ele>156.35</ele>
        <time>2018-10-08T13:14:53Z</time>
      </trkpt>
      <trkpt lat="49.65097" lon="4.94543">
        <ele>154.91</ele>
        <time>2018-10-08T13:15:15Z</time>
      </trkpt>
      <trkpt lat="49.65087" lon="4.94523">
        <ele>153.95</ele>
        <time>2018-10-08T13:15:30Z</time>
      </trkpt>
      <trkpt lat="49.65081" lon="4.94497">
        <ele>152.99</ele>
        <time>2018-10-08T13:15:45Z</time>
      </trkpt>
      <trkpt lat="49.65068" lon="4.94466">
        <ele>152.51</ele>
        <time>2018-10-08T13:16:01Z</time>
      </trkpt>
      <trkpt lat="49.65062" lon="4.94458">
        <ele>152.99</ele>
        <time>2018-10-08T13:16:07Z</time>
      </trkpt>
      <trkpt lat="49.6505" lon="4.94431">
        <ele>152.51</ele>
        <time>2018-10-08T13:16:24Z</time>
      </trkpt>
      <trkpt lat="49.65038" lon="4.94402">
        <ele>153.95</ele>
        <time>2018-10-08T13:16:43Z</time>
      </trkpt>
      <trkpt lat="49.65026" lon="4.9439">
        <ele>157.31</ele>
        <time>2018-10-08T13:16:56Z</time>
      </trkpt>
      <trkpt lat="49.65006" lon="4.94369">
        <ele>161.64</ele>
        <time>2018-10-08T13:17:14Z</time>
      </trkpt>
      <trkpt lat="49.64989" lon="4.94349">
        <ele>165</ele>
        <time>2018-10-08T13:17:32Z</time>
      </trkpt>
      <trkpt lat="49.64987" lon="4.94346">
        <ele>165</ele>
        <time>2018-10-08T13:17:34Z</time>
      </trkpt>
      <trkpt lat="49.64967" lon="4.94333">
        <ele>166.93</ele>
        <time>2018-10-08T13:17:52Z</time>
      </trkpt>
      <trkpt lat="49.64949" lon="4.94317">
        <ele>166.93</ele>
        <time>2018-10-08T13:18:11Z</time>
      </trkpt>
      <trkpt lat="49.6493" lon="4.94306">
        <ele>168.85</ele>
        <time>2018-10-08T13:18:28Z</time>
      </trkpt>
      <trkpt lat="49.64911" lon="4.94294">
        <ele>171.25</ele>
        <time>2018-10-08T13:18:46Z</time>
      </trkpt>
      <trkpt lat="49.6489" lon="4.94281">
        <ele>173.17</ele>
        <time>2018-10-08T13:19:05Z</time>
      </trkpt>
      <trkpt lat="49.64872" lon="4.94278">
        <ele>177.5</ele>
        <time>2018-10-08T13:19:22Z</time>
      </trkpt>
      <trkpt lat="49.64853" lon="4.94284">
        <ele>177.98</ele>
        <time>2018-10-08T13:19:40Z</time>
      </trkpt>
      <trkpt lat="49.64848" lon="4.94286">
        <ele>177.98</ele>
        <time>2018-10-08T13:19:44Z</time>
      </trkpt>
      <trkpt lat="49.6483" lon="4.94297">
        <ele>180.38</ele>
        <time>2018-10-08T13:20:02Z</time>
      </trkpt>
      <trkpt lat="49.64812" lon="4.94306">
        <ele>181.83</ele>
        <time>2018-10-08T13:20:19Z</time>
      </trkpt>
      <trkpt lat="49.64797" lon="4.94313">
        <ele>184.23</ele>
        <time>2018-10-08T13:20:34Z</time>
      </trkpt>
      <trkpt lat="49.64778" lon="4.94322">
        <ele>186.63</ele>
        <time>2018-10-08T13:20:51Z</time>
      </trkpt>
      <trkpt lat="49.64775" lon="4.94322">
        <ele>187.11</ele>
        <time>2018-10-08T13:20:54Z</time>
      </trkpt>
      <trkpt lat="49.64756" lon="4.9433">
        <ele>189.04</ele>
        <time>2018-10-08T13:21:12Z</time>
      </trkpt>
      <trkpt lat="49.64738" lon="4.94333">
        <ele>191.44</ele>
        <time>2018-10-08T13:21:29Z</time>
      </trkpt>
      <trkpt lat="49.6472" lon="4.94334">
        <ele>193.84</ele>
        <time>2018-10-08T13:21:46Z</time>
      </trkpt>
      <trkpt lat="49.64703" lon="4.94332">
        <ele>198.17</ele>
        <time>2018-10-08T13:22:01Z</time>
      </trkpt>
      <trkpt lat="49.64687" lon="4.9433">
        <ele>202.01</ele>
        <time>2018-10-08T13:22:17Z</time>
      </trkpt>
      <trkpt lat="49.64673" lon="4.94328">
        <ele>204.42</ele>
        <time>2018-10-08T13:22:32Z</time>
      </trkpt>
      <trkpt lat="49.64656" lon="4.94322">
        <ele>206.34</ele>
        <time>2018-10-08T13:22:47Z</time>
      </trkpt>
      <trkpt lat="49.64639" lon="4.94319">
        <ele>206.34</ele>
        <time>2018-10-08T13:23:02Z</time>
      </trkpt>
      <trkpt lat="49.64618" lon="4.94312">
        <ele>206.82</ele>
        <time>2018-10-08T13:23:21Z</time>
      </trkpt>
      <trkpt lat="49.64603" lon="4.94308">
        <ele>207.78</ele>
        <time>2018-10-08T13:23:37Z</time>
      </trkpt>
      <trkpt lat="49.64584" lon="4.94299">
        <ele>212.11</ele>
        <time>2018-10-08T13:23:59Z</time>
      </trkpt>
      <trkpt lat="49.64568" lon="4.94289">
        <ele>214.99</ele>
        <time>2018-10-08T13:24:16Z</time>
      </trkpt>
      <trkpt lat="49.64551" lon="4.94277">
        <ele>217.4</ele>
        <time>2018-10-08T13:24:34Z</time>
      </trkpt>
      <trkpt lat="49.64535" lon="4.94265">
        <ele>219.8</ele>
        <time>2018-10-08T13:24:52Z</time>
      </trkpt>
      <trkpt lat="49.64517" lon="4.94245">
        <ele>229.89</ele>
        <time>2018-10-08T13:25:15Z</time>
      </trkpt>
      <trkpt lat="49.64496" lon="4.94231">
        <ele>237.1</ele>
        <time>2018-10-08T13:25:36Z</time>
      </trkpt>
      <trkpt lat="49.64482" lon="4.94213">
        <ele>244.31</ele>
        <time>2018-10-08T13:25:57Z</time>
      </trkpt>
      <trkpt lat="49.64467" lon="4.942">
        <ele>244.31</ele>
        <time>2018-10-08T13:26:18Z</time>
      </trkpt>
      <trkpt lat="49.64463" lon="4.94196">
        <ele>243.83</ele>
        <time>2018-10-08T13:26:37Z</time>
      </trkpt>
      <trkpt lat="49.64457" lon="4.9419">
        <ele>242.87</ele>
        <time>2018-10-08T13:26:53Z</time>
      </trkpt>
      <trkpt lat="49.64445" lon="4.94173">
        <ele>239.99</ele>
        <time>2018-10-08T13:27:10Z</time>
      </trkpt>
      <trkpt lat="49.64439" lon="4.9416">
        <ele>240.95</ele>
        <time>2018-10-08T13:27:32Z</time>
      </trkpt>
      <trkpt lat="49.64435" lon="4.9415">
        <ele>240.95</ele>
        <time>2018-10-08T13:27:50Z</time>
      </trkpt>
      <trkpt lat="49.64414" lon="4.94109">
        <ele>247.2</ele>
        <time>2018-10-08T13:28:11Z</time>
      </trkpt>
      <trkpt lat="49.64395" lon="4.94083">
        <ele>254.41</ele>
        <time>2018-10-08T13:28:32Z</time>
      </trkpt>
      <trkpt lat="49.64379" lon="4.94067">
        <ele>255.85</ele>
        <time>2018-10-08T13:28:53Z</time>
      </trkpt>
      <trkpt lat="49.64371" lon="4.94052">
        <ele>256.81</ele>
        <time>2018-10-08T13:29:09Z</time>
      </trkpt>
      <trkpt lat="49.64354" lon="4.94031">
        <ele>257.29</ele>
        <time>2018-10-08T13:29:27Z</time>
      </trkpt>
      <trkpt lat="49.64342" lon="4.94012">
        <ele>258.25</ele>
        <time>2018-10-08T13:29:44Z</time>
      </trkpt>
      <trkpt lat="49.64322" lon="4.93993">
        <ele>263.54</ele>
        <time>2018-10-08T13:30:00Z</time>
      </trkpt>
      <trkpt lat="49.64309" lon="4.93996">
        <ele>264.98</ele>
        <time>2018-10-08T13:30:15Z</time>
      </trkpt>
      <trkpt lat="49.64303" lon="4.94014">
        <ele>268.83</ele>
        <time>2018-10-08T13:30:29Z</time>
      </trkpt>
      <trkpt lat="49.64303" lon="4.94015">
        <ele>269.31</ele>
        <time>2018-10-08T13:30:30Z</time>
      </trkpt>
      <trkpt lat="49.64303" lon="4.94025">
        <ele>270.27</ele>
        <time>2018-10-08T13:30:36Z</time>
      </trkpt>
      <trkpt lat="49.64304" lon="4.94039">
        <ele>270.27</ele>
        <time>2018-10-08T13:30:46Z</time>
      </trkpt>
      <trkpt lat="49.643" lon="4.94058">
        <ele>271.71</ele>
        <time>2018-10-08T13:31:00Z</time>
      </trkpt>
      <trkpt lat="49.643" lon="4.94061">
        <ele>272.19</ele>
        <time>2018-10-08T13:31:02Z</time>
      </trkpt>
      <trkpt lat="49.64294" lon="4.94078">
        <ele>274.11</ele>
        <time>2018-10-08T13:31:16Z</time>
      </trkpt>
      <trkpt lat="49.64286" lon="4.94095">
        <ele>275.07</ele>
        <time>2018-10-08T13:31:31Z</time>
      </trkpt>
      <trkpt lat="49.64269" lon="4.9411">
        <ele>276.52</ele>
        <time>2018-10-08T13:31:47Z</time>
      </trkpt>
      <trkpt lat="49.64261" lon="4.94119">
        <ele>275.56</ele>
        <time>2018-10-08T13:32:03Z</time>
      </trkpt>
      <trkpt lat="49.6425" lon="4.94133">
        <ele>274.59</ele>
        <time>2018-10-08T13:32:18Z</time>
      </trkpt>
      <trkpt lat="49.64239" lon="4.94142">
        <ele>275.07</ele>
        <time>2018-10-08T13:32:32Z</time>
      </trkpt>
      <trkpt lat="49.64226" lon="4.94152">
        <ele>279.4</ele>
        <time>2018-10-08T13:32:46Z</time>
      </trkpt>
      <trkpt lat="49.64212" lon="4.9416">
        <ele>282.28</ele>
        <time>2018-10-08T13:33:00Z</time>
      </trkpt>
      <trkpt lat="49.64203" lon="4.94164">
        <ele>284.21</ele>
        <time>2018-10-08T13:33:10Z</time>
      </trkpt>
      <trkpt lat="49.64187" lon="4.94169">
        <ele>288.05</ele>
        <time>2018-10-08T13:33:25Z</time>
      </trkpt>
      <trkpt lat="49.64171" lon="4.94175">
        <ele>289.97</ele>
        <time>2018-10-08T13:33:41Z</time>
      </trkpt>
      <trkpt lat="49.64155" lon="4.94183">
        <ele>292.38</ele>
        <time>2018-10-08T13:33:57Z</time>
      </trkpt>
      <trkpt lat="49.64138" lon="4.94193">
        <ele>294.78</ele>
        <time>2018-10-08T13:34:15Z</time>
      </trkpt>
      <trkpt lat="49.64123" lon="4.94205">
        <ele>295.26</ele>
        <time>2018-10-08T13:34:31Z</time>
      </trkpt>
      <trkpt lat="49.64107" lon="4.94214">
        <ele>296.7</ele>
        <time>2018-10-08T13:34:47Z</time>
      </trkpt>
      <trkpt lat="49.64092" lon="4.94223">
        <ele>297.18</ele>
        <time>2018-10-08T13:35:03Z</time>
      </trkpt>
      <trkpt lat="49.64078" lon="4.94235">
        <ele>296.22</ele>
        <time>2018-10-08T13:35:18Z</time>
      </trkpt>
      <trkpt lat="49.64061" lon="4.9425">
        <ele>295.26</ele>
        <time>2018-10-08T13:35:36Z</time>
      </trkpt>
      <trkpt lat="49.64058" lon="4.94252">
        <ele>293.82</ele>
        <time>2018-10-08T13:35:50Z</time>
      </trkpt>
      <trkpt lat="49.64054" lon="4.94256">
        <ele>292.86</ele>
        <time>2018-10-08T13:36:05Z</time>
      </trkpt>
      <trkpt lat="49.64044" lon="4.94265">
        <ele>292.86</ele>
        <time>2018-10-08T13:36:20Z</time>
      </trkpt>
      <trkpt lat="49.64047" lon="4.94273">
        <ele>292.38</ele>
        <time>2018-10-08T13:36:34Z</time>
      </trkpt>
      <trkpt lat="49.64047" lon="4.94271">
        <ele>292.86</ele>
        <time>2018-10-08T13:36:56Z</time>
      </trkpt>
      <trkpt lat="49.64047" lon="4.94271">
        <ele>292.86</ele>
        <time>2018-10-08T13:37:21Z</time>
      </trkpt>
      <trkpt lat="49.64046" lon="4.94271">
        <ele>292.86</ele>
        <time>2018-10-08T13:37:47Z</time>
      </trkpt>
      <trkpt lat="49.64047" lon="4.94271">
        <ele>293.34</ele>
        <time>2018-10-08T13:38:06Z</time>
      </trkpt>
      <trkpt lat="49.64046" lon="4.94272">
        <ele>294.3</ele>
        <time>2018-10-08T13:38:33Z</time>
      </trkpt>
      <trkpt lat="49.64047" lon="4.94273">
        <ele>294.3</ele>
        <time>2018-10-08T13:39:01Z</time>
      </trkpt>
      <trkpt lat="49.64047" lon="4.94273">
        <ele>294.3</ele>
        <time>2018-10-08T13:39:30Z</time>
      </trkpt>
      <trkpt lat="49.64047" lon="4.94275">
        <ele>294.78</ele>
        <time>2018-10-08T13:40:01Z</time>
      </trkpt>
      <trkpt lat="49.64047" lon="4.94275">
        <ele>294.78</ele>
        <time>2018-10-08T13:40:29Z</time>
      </trkpt>
      <trkpt lat="49.64048" lon="4.94276">
        <ele>294.78</ele>
        <time>2018-10-08T13:41:15Z</time>
      </trkpt>
      <trkpt lat="49.64048" lon="4.94277">
        <ele>294.78</ele>
        <time>2018-10-08T13:41:50Z</time>
      </trkpt>
      <trkpt lat="49.64047" lon="4.94276">
        <ele>294.78</ele>
        <time>2018-10-08T13:42:13Z</time>
      </trkpt>
      <trkpt lat="49.64047" lon="4.94275">
        <ele>294.78</ele>
        <time>2018-10-08T13:42:44Z</time>
      </trkpt>
      <trkpt lat="49.64046" lon="4.94269">
        <ele>294.78</ele>
        <time>2018-10-08T13:43:04Z</time>
      </trkpt>
      <trkpt lat="49.64044" lon="4.94265">
        <ele>294.78</ele>
        <time>2018-10-08T13:43:09Z</time>
      </trkpt>
      <trkpt lat="49.64042" lon="4.94264">
        <ele>294.78</ele>
        <time>2018-10-08T13:43:11Z</time>
      </trkpt>
      <trkpt lat="49.64022" lon="4.94274">
        <ele>294.78</ele>
        <time>2018-10-08T13:43:31Z</time>
      </trkpt>
      <trkpt lat="49.64004" lon="4.94282">
        <ele>291.9</ele>
        <time>2018-10-08T13:43:49Z</time>
      </trkpt>
      <trkpt lat="49.63984" lon="4.94295">
        <ele>291.42</ele>
        <time>2018-10-08T13:44:09Z</time>
      </trkpt>
      <trkpt lat="49.63963" lon="4.94309">
        <ele>291.42</ele>
        <time>2018-10-08T13:44:27Z</time>
      </trkpt>
      <trkpt lat="49.63944" lon="4.94325">
        <ele>290.94</ele>
        <time>2018-10-08T13:44:46Z</time>
      </trkpt>
      <trkpt lat="49.63933" lon="4.94334">
        <ele>291.9</ele>
        <time>2018-10-08T13:44:58Z</time>
      </trkpt>
      <trkpt lat="49.63914" lon="4.94343">
        <ele>289.97</ele>
        <time>2018-10-08T13:45:16Z</time>
      </trkpt>
      <trkpt lat="49.63906" lon="4.94349">
        <ele>289.01</ele>
        <time>2018-10-08T13:45:30Z</time>
      </trkpt>
      <trkpt lat="49.6389" lon="4.94358">
        <ele>289.01</ele>
        <time>2018-10-08T13:45:45Z</time>
      </trkpt>
      <trkpt lat="49.63873" lon="4.94367">
        <ele>286.61</ele>
        <time>2018-10-08T13:46:02Z</time>
      </trkpt>
      <trkpt lat="49.63856" lon="4.94376">
        <ele>284.69</ele>
        <time>2018-10-08T13:46:18Z</time>
      </trkpt>
      <trkpt lat="49.63839" lon="4.94384">
        <ele>284.21</ele>
        <time>2018-10-08T13:46:34Z</time>
      </trkpt>
      <trkpt lat="49.63819" lon="4.94397">
        <ele>282.77</ele>
        <time>2018-10-08T13:46:54Z</time>
      </trkpt>
      <trkpt lat="49.63811" lon="4.94402">
        <ele>282.28</ele>
        <time>2018-10-08T13:47:02Z</time>
      </trkpt>
      <trkpt lat="49.63796" lon="4.94414">
        <ele>281.32</ele>
        <time>2018-10-08T13:47:19Z</time>
      </trkpt>
      <trkpt lat="49.63779" lon="4.94425">
        <ele>281.32</ele>
        <time>2018-10-08T13:47:36Z</time>
      </trkpt>
      <trkpt lat="49.63762" lon="4.94434">
        <ele>280.84</ele>
        <time>2018-10-08T13:47:53Z</time>
      </trkpt>
      <trkpt lat="49.6374" lon="4.94446">
        <ele>279.4</ele>
        <time>2018-10-08T13:48:13Z</time>
      </trkpt>
      <trkpt lat="49.63722" lon="4.94457">
        <ele>279.4</ele>
        <time>2018-10-08T13:48:31Z</time>
      </trkpt>
      <trkpt lat="49.63703" lon="4.94468">
        <ele>280.36</ele>
        <time>2018-10-08T13:48:48Z</time>
      </trkpt>
      <trkpt lat="49.63701" lon="4.9447">
        <ele>280.36</ele>
        <time>2018-10-08T13:48:50Z</time>
      </trkpt>
      <trkpt lat="49.63682" lon="4.94483">
        <ele>279.88</ele>
        <time>2018-10-08T13:49:08Z</time>
      </trkpt>
      <trkpt lat="49.63661" lon="4.94495">
        <ele>279.88</ele>
        <time>2018-10-08T13:49:27Z</time>
      </trkpt>
      <trkpt lat="49.63642" lon="4.94507">
        <ele>278.44</ele>
        <time>2018-10-08T13:49:44Z</time>
      </trkpt>
      <trkpt lat="49.63622" lon="4.94519">
        <ele>278.44</ele>
        <time>2018-10-08T13:50:03Z</time>
      </trkpt>
      <trkpt lat="49.63604" lon="4.94529">
        <ele>278.92</ele>
        <time>2018-10-08T13:50:21Z</time>
      </trkpt>
      <trkpt lat="49.63583" lon="4.94545">
        <ele>277</ele>
        <time>2018-10-08T13:50:40Z</time>
      </trkpt>
      <trkpt lat="49.63561" lon="4.94557">
        <ele>277.96</ele>
        <time>2018-10-08T13:51:02Z</time>
      </trkpt>
      <trkpt lat="49.63544" lon="4.9457">
        <ele>274.59</ele>
        <time>2018-10-08T13:51:19Z</time>
      </trkpt>
      <trkpt lat="49.63527" lon="4.9458">
        <ele>273.15</ele>
        <time>2018-10-08T13:51:34Z</time>
      </trkpt>
      <trkpt lat="49.63515" lon="4.94585">
        <ele>272.19</ele>
        <time>2018-10-08T13:51:52Z</time>
      </trkpt>
      <trkpt lat="49.63491" lon="4.94601">
        <ele>270.75</ele>
        <time>2018-10-08T13:52:13Z</time>
      </trkpt>
      <trkpt lat="49.63486" lon="4.94602">
        <ele>270.27</ele>
        <time>2018-10-08T13:52:26Z</time>
      </trkpt>
      <trkpt lat="49.63482" lon="4.94605">
        <ele>269.79</ele>
        <time>2018-10-08T13:52:30Z</time>
      </trkpt>
      <trkpt lat="49.63464" lon="4.94616">
        <ele>268.35</ele>
        <time>2018-10-08T13:52:49Z</time>
      </trkpt>
      <trkpt lat="49.63443" lon="4.94628">
        <ele>264.98</ele>
        <time>2018-10-08T13:53:08Z</time>
      </trkpt>
      <trkpt lat="49.63428" lon="4.94636">
        <ele>262.58</ele>
        <time>2018-10-08T13:53:23Z</time>
      </trkpt>
      <trkpt lat="49.63412" lon="4.94646">
        <ele>261.62</ele>
        <time>2018-10-08T13:53:38Z</time>
      </trkpt>
      <trkpt lat="49.63393" lon="4.94664">
        <ele>259.69</ele>
        <time>2018-10-08T13:53:58Z</time>
      </trkpt>
      <trkpt lat="49.63376" lon="4.94685">
        <ele>260.65</ele>
        <time>2018-10-08T13:54:16Z</time>
      </trkpt>
      <trkpt lat="49.63357" lon="4.94706">
        <ele>255.85</ele>
        <time>2018-10-08T13:54:35Z</time>
      </trkpt>
      <trkpt lat="49.63337" lon="4.94732">
        <ele>250.56</ele>
        <time>2018-10-08T13:54:58Z</time>
      </trkpt>
      <trkpt lat="49.63315" lon="4.94762">
        <ele>249.6</ele>
        <time>2018-10-08T13:55:22Z</time>
      </trkpt>
      <trkpt lat="49.63309" lon="4.9479">
        <ele>250.56</ele>
        <time>2018-10-08T13:55:40Z</time>
      </trkpt>
      <trkpt lat="49.63325" lon="4.9481">
        <ele>249.6</ele>
        <time>2018-10-08T13:55:57Z</time>
      </trkpt>
      <trkpt lat="49.63348" lon="4.94839">
        <ele>250.56</ele>
        <time>2018-10-08T13:56:21Z</time>
      </trkpt>
      <trkpt lat="49.63365" lon="4.94867">
        <ele>251.52</ele>
        <time>2018-10-08T13:56:42Z</time>
      </trkpt>
      <trkpt lat="49.63371" lon="4.94893">
        <ele>251.04</ele>
        <time>2018-10-08T13:56:59Z</time>
      </trkpt>
      <trkpt lat="49.63368" lon="4.94932">
        <ele>250.08</ele>
        <time>2018-10-08T13:57:20Z</time>
      </trkpt>
      <trkpt lat="49.63365" lon="4.94959">
        <ele>252.48</ele>
        <time>2018-10-08T13:57:34Z</time>
      </trkpt>
      <trkpt lat="49.63365" lon="4.94974">
        <ele>251.52</ele>
        <time>2018-10-08T13:57:42Z</time>
      </trkpt>
      <trkpt lat="49.63385" lon="4.94997">
        <ele>251.52</ele>
        <time>2018-10-08T13:58:03Z</time>
      </trkpt>
      <trkpt lat="49.63399" lon="4.95014">
        <ele>252.48</ele>
        <time>2018-10-08T13:58:20Z</time>
      </trkpt>
      <trkpt lat="49.63417" lon="4.9504">
        <ele>256.33</ele>
        <time>2018-10-08T13:58:41Z</time>
      </trkpt>
      <trkpt lat="49.63431" lon="4.95059">
        <ele>257.77</ele>
        <time>2018-10-08T13:58:58Z</time>
      </trkpt>
      <trkpt lat="49.63447" lon="4.95083">
        <ele>260.17</ele>
        <time>2018-10-08T13:59:17Z</time>
      </trkpt>
      <trkpt lat="49.63461" lon="4.95103">
        <ele>261.62</ele>
        <time>2018-10-08T13:59:34Z</time>
      </trkpt>
      <trkpt lat="49.63476" lon="4.95126">
        <ele>263.06</ele>
        <time>2018-10-08T13:59:52Z</time>
      </trkpt>
      <trkpt lat="49.6349" lon="4.95148">
        <ele>264.5</ele>
        <time>2018-10-08T14:00:09Z</time>
      </trkpt>
      <trkpt lat="49.63506" lon="4.95171">
        <ele>266.9</ele>
        <time>2018-10-08T14:00:28Z</time>
      </trkpt>
      <trkpt lat="49.63519" lon="4.95192">
        <ele>268.83</ele>
        <time>2018-10-08T14:00:44Z</time>
      </trkpt>
      <trkpt lat="49.63534" lon="4.95212">
        <ele>269.79</ele>
        <time>2018-10-08T14:01:01Z</time>
      </trkpt>
      <trkpt lat="49.63548" lon="4.95229">
        <ele>269.79</ele>
        <time>2018-10-08T14:01:16Z</time>
      </trkpt>
      <trkpt lat="49.63564" lon="4.95246">
        <ele>270.75</ele>
        <time>2018-10-08T14:01:33Z</time>
      </trkpt>
      <trkpt lat="49.63574" lon="4.95258">
        <ele>271.71</ele>
        <time>2018-10-08T14:01:45Z</time>
      </trkpt>
      <trkpt lat="49.6359" lon="4.95274">
        <ele>274.11</ele>
        <time>2018-10-08T14:02:02Z</time>
      </trkpt>
      <trkpt lat="49.63605" lon="4.95291">
        <ele>275.56</ele>
        <time>2018-10-08T14:02:18Z</time>
      </trkpt>
      <trkpt lat="49.63622" lon="4.95311">
        <ele>277</ele>
        <time>2018-10-08T14:02:37Z</time>
      </trkpt>
      <trkpt lat="49.6364" lon="4.9533">
        <ele>278.92</ele>
        <time>2018-10-08T14:02:56Z</time>
      </trkpt>
      <trkpt lat="49.63659" lon="4.95352">
        <ele>279.4</ele>
        <time>2018-10-08T14:03:17Z</time>
      </trkpt>
      <trkpt lat="49.63677" lon="4.95371">
        <ele>280.84</ele>
        <time>2018-10-08T14:03:37Z</time>
      </trkpt>
      <trkpt lat="49.63695" lon="4.95391">
        <ele>281.8</ele>
        <time>2018-10-08T14:03:56Z</time>
      </trkpt>
      <trkpt lat="49.63712" lon="4.95409">
        <ele>282.77</ele>
        <time>2018-10-08T14:04:14Z</time>
      </trkpt>
      <trkpt lat="49.63727" lon="4.95427">
        <ele>282.77</ele>
        <time>2018-10-08T14:04:32Z</time>
      </trkpt>
      <trkpt lat="49.63742" lon="4.95444">
        <ele>283.25</ele>
        <time>2018-10-08T14:04:48Z</time>
      </trkpt>
      <trkpt lat="49.63758" lon="4.95459">
        <ele>282.77</ele>
        <time>2018-10-08T14:05:05Z</time>
      </trkpt>
      <trkpt lat="49.63775" lon="4.95477">
        <ele>281.8</ele>
        <time>2018-10-08T14:05:24Z</time>
      </trkpt>
      <trkpt lat="49.63794" lon="4.95498">
        <ele>282.77</ele>
        <time>2018-10-08T14:05:45Z</time>
      </trkpt>
      <trkpt lat="49.63809" lon="4.95519">
        <ele>282.77</ele>
        <time>2018-10-08T14:06:03Z</time>
      </trkpt>
      <trkpt lat="49.63825" lon="4.95537">
        <ele>283.25</ele>
        <time>2018-10-08T14:06:21Z</time>
      </trkpt>
      <trkpt lat="49.63832" lon="4.95545">
        <ele>283.73</ele>
        <time>2018-10-08T14:06:37Z</time>
      </trkpt>
      <trkpt lat="49.63838" lon="4.95552">
        <ele>284.69</ele>
        <time>2018-10-08T14:06:56Z</time>
      </trkpt>
      <trkpt lat="49.63854" lon="4.9557">
        <ele>284.69</ele>
        <time>2018-10-08T14:07:14Z</time>
      </trkpt>
      <trkpt lat="49.63873" lon="4.95589">
        <ele>284.69</ele>
        <time>2018-10-08T14:07:34Z</time>
      </trkpt>
      <trkpt lat="49.63882" lon="4.95599">
        <ele>285.65</ele>
        <time>2018-10-08T14:07:45Z</time>
      </trkpt>
      <trkpt lat="49.63901" lon="4.95618">
        <ele>286.13</ele>
        <time>2018-10-08T14:08:04Z</time>
      </trkpt>
      <trkpt lat="49.63918" lon="4.95637">
        <ele>284.69</ele>
        <time>2018-10-08T14:08:24Z</time>
      </trkpt>
      <trkpt lat="49.63938" lon="4.95659">
        <ele>288.05</ele>
        <time>2018-10-08T14:08:46Z</time>
      </trkpt>
      <trkpt lat="49.63958" lon="4.95679">
        <ele>285.65</ele>
        <time>2018-10-08T14:09:06Z</time>
      </trkpt>
      <trkpt lat="49.63973" lon="4.95694">
        <ele>286.13</ele>
        <time>2018-10-08T14:09:22Z</time>
      </trkpt>
      <trkpt lat="49.63988" lon="4.95714">
        <ele>289.01</ele>
        <time>2018-10-08T14:09:41Z</time>
      </trkpt>
      <trkpt lat="49.64004" lon="4.95736">
        <ele>289.97</ele>
        <time>2018-10-08T14:10:00Z</time>
      </trkpt>
      <trkpt lat="49.6402" lon="4.95753">
        <ele>289.97</ele>
        <time>2018-10-08T14:10:18Z</time>
      </trkpt>
      <trkpt lat="49.64035" lon="4.9577">
        <ele>291.9</ele>
        <time>2018-10-08T14:10:36Z</time>
      </trkpt>
      <trkpt lat="49.64047" lon="4.95786">
        <ele>291.9</ele>
        <time>2018-10-08T14:10:52Z</time>
      </trkpt>
      <trkpt lat="49.64062" lon="4.958">
        <ele>290.94</ele>
        <time>2018-10-08T14:11:08Z</time>
      </trkpt>
      <trkpt lat="49.64079" lon="4.95817">
        <ele>286.13</ele>
        <time>2018-10-08T14:11:25Z</time>
      </trkpt>
      <trkpt lat="49.64091" lon="4.9583">
        <ele>280.84</ele>
        <time>2018-10-08T14:11:42Z</time>
      </trkpt>
      <trkpt lat="49.64112" lon="4.95851">
        <ele>277.96</ele>
        <time>2018-10-08T14:12:02Z</time>
      </trkpt>
      <trkpt lat="49.64128" lon="4.95862">
        <ele>277.96</ele>
        <time>2018-10-08T14:12:17Z</time>
      </trkpt>
      <trkpt lat="49.64148" lon="4.95882">
        <ele>278.44</ele>
        <time>2018-10-08T14:12:36Z</time>
      </trkpt>
      <trkpt lat="49.64166" lon="4.95899">
        <ele>282.28</ele>
        <time>2018-10-08T14:12:55Z</time>
      </trkpt>
      <trkpt lat="49.64184" lon="4.95913">
        <ele>284.21</ele>
        <time>2018-10-08T14:13:15Z</time>
      </trkpt>
      <trkpt lat="49.64185" lon="4.95914">
        <ele>283.73</ele>
        <time>2018-10-08T14:13:16Z</time>
      </trkpt>
      <trkpt lat="49.64203" lon="4.95927">
        <ele>286.13</ele>
        <time>2018-10-08T14:13:34Z</time>
      </trkpt>
      <trkpt lat="49.6422" lon="4.95939">
        <ele>289.01</ele>
        <time>2018-10-08T14:13:50Z</time>
      </trkpt>
      <trkpt lat="49.64241" lon="4.95951">
        <ele>289.97</ele>
        <time>2018-10-08T14:14:10Z</time>
      </trkpt>
      <trkpt lat="49.64259" lon="4.95962">
        <ele>289.97</ele>
        <time>2018-10-08T14:14:26Z</time>
      </trkpt>
      <trkpt lat="49.64277" lon="4.95974">
        <ele>289.01</ele>
        <time>2018-10-08T14:14:43Z</time>
      </trkpt>
      <trkpt lat="49.64289" lon="4.95979">
        <ele>288.53</ele>
        <time>2018-10-08T14:14:53Z</time>
      </trkpt>
      <trkpt lat="49.64313" lon="4.95996">
        <ele>289.49</ele>
        <time>2018-10-08T14:15:11Z</time>
      </trkpt>
      <trkpt lat="49.64333" lon="4.96005">
        <ele>289.97</ele>
        <time>2018-10-08T14:15:31Z</time>
      </trkpt>
      <trkpt lat="49.64355" lon="4.96014">
        <ele>288.05</ele>
        <time>2018-10-08T14:15:51Z</time>
      </trkpt>
      <trkpt lat="49.64372" lon="4.96024">
        <ele>287.09</ele>
        <time>2018-10-08T14:16:07Z</time>
      </trkpt>
      <trkpt lat="49.64392" lon="4.96031">
        <ele>287.57</ele>
        <time>2018-10-08T14:16:26Z</time>
      </trkpt>
      <trkpt lat="49.64412" lon="4.96038">
        <ele>286.61</ele>
        <time>2018-10-08T14:16:45Z</time>
      </trkpt>
      <trkpt lat="49.64431" lon="4.96048">
        <ele>284.69</ele>
        <time>2018-10-08T14:17:05Z</time>
      </trkpt>
      <trkpt lat="49.64431" lon="4.96062">
        <ele>285.17</ele>
        <time>2018-10-08T14:17:20Z</time>
      </trkpt>
      <trkpt lat="49.64428" lon="4.96068">
        <ele>285.65</ele>
        <time>2018-10-08T14:17:25Z</time>
      </trkpt>
      <trkpt lat="49.64411" lon="4.9609">
        <ele>285.17</ele>
        <time>2018-10-08T14:17:46Z</time>
      </trkpt>
      <trkpt lat="49.64407" lon="4.96095">
        <ele>284.21</ele>
        <time>2018-10-08T14:17:51Z</time>
      </trkpt>
      <trkpt lat="49.64396" lon="4.96108">
        <ele>282.77</ele>
        <time>2018-10-08T14:18:06Z</time>
      </trkpt>
      <trkpt lat="49.6439" lon="4.9612">
        <ele>282.28</ele>
        <time>2018-10-08T14:18:14Z</time>
      </trkpt>
      <trkpt lat="49.64379" lon="4.96132">
        <ele>280.84</ele>
        <time>2018-10-08T14:18:27Z</time>
      </trkpt>
      <trkpt lat="49.64368" lon="4.96147">
        <ele>281.32</ele>
        <time>2018-10-08T14:18:43Z</time>
      </trkpt>
      <trkpt lat="49.64354" lon="4.96177">
        <ele>280.84</ele>
        <time>2018-10-08T14:19:04Z</time>
      </trkpt>
      <trkpt lat="49.64346" lon="4.96202">
        <ele>277.96</ele>
        <time>2018-10-08T14:19:22Z</time>
      </trkpt>
      <trkpt lat="49.64344" lon="4.9621">
        <ele>277</ele>
        <time>2018-10-08T14:19:27Z</time>
      </trkpt>
      <trkpt lat="49.64344" lon="4.96219">
        <ele>276.04</ele>
        <time>2018-10-08T14:19:33Z</time>
      </trkpt>
      <trkpt lat="49.64343" lon="4.96226">
        <ele>275.07</ele>
        <time>2018-10-08T14:19:51Z</time>
      </trkpt>
      <trkpt lat="49.64343" lon="4.96226">
        <ele>275.56</ele>
        <time>2018-10-08T14:20:16Z</time>
      </trkpt>
      <trkpt lat="49.64342" lon="4.96226">
        <ele>277</ele>
        <time>2018-10-08T14:20:44Z</time>
      </trkpt>
      <trkpt lat="49.64342" lon="4.96226">
        <ele>277.48</ele>
        <time>2018-10-08T14:21:01Z</time>
      </trkpt>
      <trkpt lat="49.64342" lon="4.96226">
        <ele>277.96</ele>
        <time>2018-10-08T14:21:30Z</time>
      </trkpt>
      <trkpt lat="49.64339" lon="4.96234">
        <ele>277.48</ele>
        <time>2018-10-08T14:21:42Z</time>
      </trkpt>
      <trkpt lat="49.64332" lon="4.96258">
        <ele>276.04</ele>
        <time>2018-10-08T14:21:57Z</time>
      </trkpt>
      <trkpt lat="49.64323" lon="4.96278">
        <ele>273.63</ele>
        <time>2018-10-08T14:22:13Z</time>
      </trkpt>
      <trkpt lat="49.64311" lon="4.96301">
        <ele>270.27</ele>
        <time>2018-10-08T14:22:34Z</time>
      </trkpt>
      <trkpt lat="49.64308" lon="4.96306">
        <ele>269.79</ele>
        <time>2018-10-08T14:22:40Z</time>
      </trkpt>
      <trkpt lat="49.6429" lon="4.96326">
        <ele>266.42</ele>
        <time>2018-10-08T14:23:00Z</time>
      </trkpt>
      <trkpt lat="49.64274" lon="4.96346">
        <ele>263.06</ele>
        <time>2018-10-08T14:23:21Z</time>
      </trkpt>
      <trkpt lat="49.6426" lon="4.96365">
        <ele>262.58</ele>
        <time>2018-10-08T14:23:38Z</time>
      </trkpt>
      <trkpt lat="49.64248" lon="4.96384">
        <ele>261.62</ele>
        <time>2018-10-08T14:23:55Z</time>
      </trkpt>
      <trkpt lat="49.64236" lon="4.96406">
        <ele>258.73</ele>
        <time>2018-10-08T14:24:13Z</time>
      </trkpt>
      <trkpt lat="49.64227" lon="4.96425">
        <ele>257.77</ele>
        <time>2018-10-08T14:24:29Z</time>
      </trkpt>
      <trkpt lat="49.64211" lon="4.96451">
        <ele>256.33</ele>
        <time>2018-10-08T14:24:49Z</time>
      </trkpt>
      <trkpt lat="49.64193" lon="4.96477">
        <ele>253.93</ele>
        <time>2018-10-08T14:25:11Z</time>
      </trkpt>
      <trkpt lat="49.64177" lon="4.96496">
        <ele>251.04</ele>
        <time>2018-10-08T14:25:30Z</time>
      </trkpt>
      <trkpt lat="49.64159" lon="4.96518">
        <ele>249.6</ele>
        <time>2018-10-08T14:25:49Z</time>
      </trkpt>
      <trkpt lat="49.64142" lon="4.96538">
        <ele>247.2</ele>
        <time>2018-10-08T14:26:08Z</time>
      </trkpt>
      <trkpt lat="49.64125" lon="4.96559">
        <ele>243.35</ele>
        <time>2018-10-08T14:26:28Z</time>
      </trkpt>
      <trkpt lat="49.64111" lon="4.96574">
        <ele>241.43</ele>
        <time>2018-10-08T14:26:44Z</time>
      </trkpt>
      <trkpt lat="49.64101" lon="4.96587">
        <ele>239.99</ele>
        <time>2018-10-08T14:26:59Z</time>
      </trkpt>
      <trkpt lat="49.64081" lon="4.96611">
        <ele>238.06</ele>
        <time>2018-10-08T14:27:20Z</time>
      </trkpt>
      <trkpt lat="49.64068" lon="4.96633">
        <ele>236.62</ele>
        <time>2018-10-08T14:27:39Z</time>
      </trkpt>
      <trkpt lat="49.64059" lon="4.9666">
        <ele>234.7</ele>
        <time>2018-10-08T14:27:58Z</time>
      </trkpt>
      <trkpt lat="49.64052" lon="4.96693">
        <ele>233.26</ele>
        <time>2018-10-08T14:28:16Z</time>
      </trkpt>
      <trkpt lat="49.64045" lon="4.96726">
        <ele>231.33</ele>
        <time>2018-10-08T14:28:35Z</time>
      </trkpt>
      <trkpt lat="49.64037" lon="4.96749">
        <ele>230.85</ele>
        <time>2018-10-08T14:28:51Z</time>
      </trkpt>
      <trkpt lat="49.64027" lon="4.96776">
        <ele>229.89</ele>
        <time>2018-10-08T14:29:08Z</time>
      </trkpt>
      <trkpt lat="49.64018" lon="4.96802">
        <ele>225.09</ele>
        <time>2018-10-08T14:29:26Z</time>
      </trkpt>
      <trkpt lat="49.64005" lon="4.96822">
        <ele>223.64</ele>
        <time>2018-10-08T14:29:44Z</time>
      </trkpt>
      <trkpt lat="49.6399" lon="4.96849">
        <ele>220.76</ele>
        <time>2018-10-08T14:30:05Z</time>
      </trkpt>
      <trkpt lat="49.63975" lon="4.96861">
        <ele>221.24</ele>
        <time>2018-10-08T14:30:22Z</time>
      </trkpt>
      <trkpt lat="49.63965" lon="4.96876">
        <ele>221.72</ele>
        <time>2018-10-08T14:30:34Z</time>
      </trkpt>
      <trkpt lat="49.63956" lon="4.96896">
        <ele>218.84</ele>
        <time>2018-10-08T14:30:52Z</time>
      </trkpt>
      <trkpt lat="49.63945" lon="4.96915">
        <ele>217.4</ele>
        <time>2018-10-08T14:31:06Z</time>
      </trkpt>
      <trkpt lat="49.6394" lon="4.96922">
        <ele>216.43</ele>
        <time>2018-10-08T14:31:14Z</time>
      </trkpt>
      <trkpt lat="49.63927" lon="4.96949">
        <ele>213.55</ele>
        <time>2018-10-08T14:31:35Z</time>
      </trkpt>
      <trkpt lat="49.63916" lon="4.96974">
        <ele>214.03</ele>
        <time>2018-10-08T14:31:53Z</time>
      </trkpt>
      <trkpt lat="49.63906" lon="4.97008">
        <ele>213.07</ele>
        <time>2018-10-08T14:32:14Z</time>
      </trkpt>
      <trkpt lat="49.63899" lon="4.97026">
        <ele>209.22</ele>
        <time>2018-10-08T14:32:26Z</time>
      </trkpt>
      <trkpt lat="49.63888" lon="4.9705">
        <ele>203.46</ele>
        <time>2018-10-08T14:32:44Z</time>
      </trkpt>
      <trkpt lat="49.63883" lon="4.97056">
        <ele>201.53</ele>
        <time>2018-10-08T14:32:50Z</time>
      </trkpt>
      <trkpt lat="49.63876" lon="4.97068">
        <ele>200.57</ele>
        <time>2018-10-08T14:33:00Z</time>
      </trkpt>
      <trkpt lat="49.63862" lon="4.97087">
        <ele>200.57</ele>
        <time>2018-10-08T14:33:17Z</time>
      </trkpt>
      <trkpt lat="49.63854" lon="4.97098">
        <ele>200.57</ele>
        <time>2018-10-08T14:33:25Z</time>
      </trkpt>
      <trkpt lat="49.63841" lon="4.97124">
        <ele>200.57</ele>
        <time>2018-10-08T14:33:44Z</time>
      </trkpt>
      <trkpt lat="49.63828" lon="4.97155">
        <ele>201.05</ele>
        <time>2018-10-08T14:34:05Z</time>
      </trkpt>
      <trkpt lat="49.63817" lon="4.9718">
        <ele>200.57</ele>
        <time>2018-10-08T14:34:21Z</time>
      </trkpt>
      <trkpt lat="49.63803" lon="4.97202">
        <ele>200.57</ele>
        <time>2018-10-08T14:34:40Z</time>
      </trkpt>
      <trkpt lat="49.63788" lon="4.97228">
        <ele>199.13</ele>
        <time>2018-10-08T14:35:00Z</time>
      </trkpt>
      <trkpt lat="49.63774" lon="4.97252">
        <ele>197.21</ele>
        <time>2018-10-08T14:35:21Z</time>
      </trkpt>
      <trkpt lat="49.63764" lon="4.97271">
        <ele>194.8</ele>
        <time>2018-10-08T14:35:37Z</time>
      </trkpt>
      <trkpt lat="49.63752" lon="4.97297">
        <ele>192.88</ele>
        <time>2018-10-08T14:35:55Z</time>
      </trkpt>
      <trkpt lat="49.63737" lon="4.97321">
        <ele>190</ele>
        <time>2018-10-08T14:36:17Z</time>
      </trkpt>
      <trkpt lat="49.63721" lon="4.97337">
        <ele>190.96</ele>
        <time>2018-10-08T14:36:35Z</time>
      </trkpt>
      <trkpt lat="49.63707" lon="4.97352">
        <ele>190</ele>
        <time>2018-10-08T14:36:52Z</time>
      </trkpt>
      <trkpt lat="49.63689" lon="4.9737">
        <ele>187.11</ele>
        <time>2018-10-08T14:37:09Z</time>
      </trkpt>
      <trkpt lat="49.63673" lon="4.97384">
        <ele>184.71</ele>
        <time>2018-10-08T14:37:26Z</time>
      </trkpt>
      <trkpt lat="49.63658" lon="4.97403">
        <ele>183.75</ele>
        <time>2018-10-08T14:37:45Z</time>
      </trkpt>
      <trkpt lat="49.63649" lon="4.97431">
        <ele>184.23</ele>
        <time>2018-10-08T14:38:03Z</time>
      </trkpt>
      <trkpt lat="49.63644" lon="4.9746">
        <ele>183.27</ele>
        <time>2018-10-08T14:38:20Z</time>
      </trkpt>
      <trkpt lat="49.6364" lon="4.97489">
        <ele>181.83</ele>
        <time>2018-10-08T14:38:36Z</time>
      </trkpt>
      <trkpt lat="49.63642" lon="4.97522">
        <ele>177.02</ele>
        <time>2018-10-08T14:38:57Z</time>
      </trkpt>
      <trkpt lat="49.63643" lon="4.97541">
        <ele>174.62</ele>
        <time>2018-10-08T14:39:07Z</time>
      </trkpt>
      <trkpt lat="49.63643" lon="4.97571">
        <ele>169.33</ele>
        <time>2018-10-08T14:39:25Z</time>
      </trkpt>
      <trkpt lat="49.63648" lon="4.97582">
        <ele>168.37</ele>
        <time>2018-10-08T14:39:33Z</time>
      </trkpt>
      <trkpt lat="49.63648" lon="4.97608">
        <ele>167.41</ele>
        <time>2018-10-08T14:39:48Z</time>
      </trkpt>
      <trkpt lat="49.63639" lon="4.97635">
        <ele>165.48</ele>
        <time>2018-10-08T14:40:06Z</time>
      </trkpt>
      <trkpt lat="49.63626" lon="4.97649">
        <ele>164.04</ele>
        <time>2018-10-08T14:40:21Z</time>
      </trkpt>
      <trkpt lat="49.63621" lon="4.97656">
        <ele>163.56</ele>
        <time>2018-10-08T14:40:35Z</time>
      </trkpt>
      <trkpt lat="49.63615" lon="4.9766">
        <ele>163.08</ele>
        <time>2018-10-08T14:40:48Z</time>
      </trkpt>
      <trkpt lat="49.63598" lon="4.97673">
        <ele>162.12</ele>
        <time>2018-10-08T14:41:05Z</time>
      </trkpt>
      <trkpt lat="49.63594" lon="4.97677">
        <ele>162.12</ele>
        <time>2018-10-08T14:41:08Z</time>
      </trkpt>
      <trkpt lat="49.63571" lon="4.9771">
        <ele>156.35</ele>
        <time>2018-10-08T14:41:33Z</time>
      </trkpt>
      <trkpt lat="49.63559" lon="4.97724">
        <ele>154.91</ele>
        <time>2018-10-08T14:41:47Z</time>
      </trkpt>
      <trkpt lat="49.63549" lon="4.97746">
        <ele>153.47</ele>
        <time>2018-10-08T14:42:04Z</time>
      </trkpt>
      <trkpt lat="49.63535" lon="4.97775">
        <ele>155.87</ele>
        <time>2018-10-08T14:42:24Z</time>
      </trkpt>
      <trkpt lat="49.63516" lon="4.97795">
        <ele>160.2</ele>
        <time>2018-10-08T14:42:44Z</time>
      </trkpt>
      <trkpt lat="49.63515" lon="4.97796">
        <ele>160.2</ele>
        <time>2018-10-08T14:42:45Z</time>
      </trkpt>
      <trkpt lat="49.63496" lon="4.9782">
        <ele>159.72</ele>
        <time>2018-10-08T14:43:05Z</time>
      </trkpt>
      <trkpt lat="49.63484" lon="4.97841">
        <ele>162.6</ele>
        <time>2018-10-08T14:43:21Z</time>
      </trkpt>
      <trkpt lat="49.63476" lon="4.97855">
        <ele>162.12</ele>
        <time>2018-10-08T14:43:32Z</time>
      </trkpt>
      <trkpt lat="49.63459" lon="4.97877">
        <ele>166.93</ele>
        <time>2018-10-08T14:43:54Z</time>
      </trkpt>
      <trkpt lat="49.63443" lon="4.97895">
        <ele>169.81</ele>
        <time>2018-10-08T14:44:13Z</time>
      </trkpt>
      <trkpt lat="49.63441" lon="4.97896">
        <ele>170.29</ele>
        <time>2018-10-08T14:44:15Z</time>
      </trkpt>
      <trkpt lat="49.63421" lon="4.97906">
        <ele>171.73</ele>
        <time>2018-10-08T14:44:35Z</time>
      </trkpt>
      <trkpt lat="49.63402" lon="4.9792">
        <ele>171.25</ele>
        <time>2018-10-08T14:44:53Z</time>
      </trkpt>
      <trkpt lat="49.63389" lon="4.97943">
        <ele>168.37</ele>
        <time>2018-10-08T14:45:13Z</time>
      </trkpt>
      <trkpt lat="49.6339" lon="4.97969">
        <ele>169.81</ele>
        <time>2018-10-08T14:45:29Z</time>
      </trkpt>
      <trkpt lat="49.63397" lon="4.97993">
        <ele>167.89</ele>
        <time>2018-10-08T14:45:47Z</time>
      </trkpt>
      <trkpt lat="49.63406" lon="4.98026">
        <ele>165.96</ele>
        <time>2018-10-08T14:46:07Z</time>
      </trkpt>
      <trkpt lat="49.63427" lon="4.98048">
        <ele>161.16</ele>
        <time>2018-10-08T14:46:27Z</time>
      </trkpt>
      <trkpt lat="49.63429" lon="4.98051">
        <ele>160.68</ele>
        <time>2018-10-08T14:46:30Z</time>
      </trkpt>
      <trkpt lat="49.63441" lon="4.98057">
        <ele>161.16</ele>
        <time>2018-10-08T14:46:45Z</time>
      </trkpt>
      <trkpt lat="49.63442" lon="4.98052">
        <ele>165</ele>
        <time>2018-10-08T14:46:52Z</time>
      </trkpt>
    </trkseg>
  </trk>
</gpx>